OMA115 OOMS-EDDF
Flight info
| Callsign | OMA115 |
|---|---|
| Flight time | 7h 8m |
| Altitude | 30000 |
| Route | ITLAK DCT ITURA B400 GEPOT G652 TOKRA DCT ASMIS DCT PMA DCT SHM DCT ANTAR UN133 KPC UN137 BITLA DCT AKIKA DCT GILUK DCT KUSIB DCT NAKUM DCT TRAUN DCT ASPAT T161 DEBHI DEBHI1C |
| Aircraft | B789/H-SDE1E2E3FGHIJ2J3J4J5M1RWXY/LB1D1 |
Departure
| Time | 2026-04-13 15:17 |
|---|---|
| Airport | Muscat International Airport (OOMS) |
Arrival
| Time | 2026-04-13 22:25 |
|---|---|
| Airport | Frankfurt Main Airport (EDDF) |
| Time | Latitude | Longitude | Altitude | Speed | Heading |
|---|---|---|---|---|---|
| 2026-04-13 14:55 | 23.60411 | 58.28557 | 50 ft | 0 kts | 84° |
| 2026-04-13 14:58 | 23.60410 | 58.28545 | 50 ft | 4 kts | 84° |
| 2026-04-13 14:58 | 23.60408 | 58.28516 | 50 ft | 4 kts | 84° |
| 2026-04-13 14:58 | 23.60405 | 58.28487 | 48 ft | 4 kts | 84° |
| 2026-04-13 14:58 | 23.60403 | 58.28459 | 45 ft | 4 kts | 72° |
| 2026-04-13 14:59 | 23.60398 | 58.28448 | 48 ft | 4 kts | 13° |
| 2026-04-13 14:59 | 23.60381 | 58.28448 | 44 ft | 4 kts | 355° |
| 2026-04-13 14:59 | 23.60354 | 58.28450 | 47 ft | 4 kts | 355° |
| 2026-04-13 14:59 | 23.60328 | 58.28453 | 48 ft | 2 kts | 355° |
| 2026-04-13 15:00 | 23.60327 | 58.28453 | 50 ft | 1 kts | 355° |
| 2026-04-13 15:13 | 23.60335 | 58.28452 | 50 ft | 2 kts | 355° |
| 2026-04-13 15:13 | 23.60378 | 58.28448 | 50 ft | 13 kts | 355° |
| 2026-04-13 15:14 | 23.60492 | 58.28439 | 50 ft | 16 kts | 6° |
| 2026-04-13 15:14 | 23.60544 | 58.28512 | 50 ft | 12 kts | 78° |
| 2026-04-13 15:14 | 23.60557 | 58.28680 | 50 ft | 21 kts | 83° |
| 2026-04-13 15:14 | 23.60570 | 58.28789 | 50 ft | 21 kts | 84° |
| 2026-04-13 15:15 | 23.60583 | 58.28949 | 50 ft | 22 kts | 85° |
| 2026-04-13 15:15 | 23.60595 | 58.29111 | 50 ft | 21 kts | 85° |
| 2026-04-13 15:15 | 23.60609 | 58.29270 | 50 ft | 21 kts | 84° |
| 2026-04-13 15:15 | 23.60624 | 58.29430 | 50 ft | 21 kts | 84° |
| 2026-04-13 15:16 | 23.60648 | 58.29582 | 48 ft | 19 kts | 53° |
| 2026-04-13 15:16 | 23.60746 | 58.29604 | 49 ft | 14 kts | 354° |
| 2026-04-13 15:16 | 23.60848 | 58.29592 | 48 ft | 15 kts | 346° |
| 2026-04-13 15:16 | 23.60897 | 58.29500 | 49 ft | 19 kts | 264° |
| 2026-04-13 15:17 | 23.60858 | 58.29148 | 50 ft | 83 kts | 265° |
| 2026-04-13 15:17 | 23.60789 | 58.28242 | 49 ft | 154 kts | 265° |
| 2026-04-13 15:17 | 23.60684 | 58.26937 | 535 ft | 178 kts | 266° |
| 2026-04-13 15:17 | 23.60569 | 58.25564 | 1543 ft | 185 kts | 267° |
| 2026-04-13 15:18 | 23.60459 | 58.24141 | 2501 ft | 193 kts | 267° |
| 2026-04-13 15:18 | 23.60338 | 58.22625 | 3241 ft | 208 kts | 266° |
| 2026-04-13 15:18 | 23.60206 | 58.20993 | 3991 ft | 223 kts | 266° |
| 2026-04-13 15:18 | 23.60055 | 58.19255 | 4700 ft | 243 kts | 264° |
| 2026-04-13 15:19 | 23.59313 | 58.17555 | 5533 ft | 258 kts | 230° |
| 2026-04-13 15:19 | 23.57874 | 58.16370 | 6667 ft | 267 kts | 208° |
| 2026-04-13 15:19 | 23.56111 | 58.15699 | 7683 ft | 270 kts | 206° |
| 2026-04-13 15:19 | 23.54383 | 58.14863 | 8661 ft | 274 kts | 209° |
| 2026-04-13 15:20 | 23.52624 | 58.14009 | 9685 ft | 280 kts | 207° |
| 2026-04-13 15:20 | 23.50802 | 58.13195 | 10551 ft | 289 kts | 206° |
| 2026-04-13 15:20 | 23.48888 | 58.12354 | 11215 ft | 304 kts | 206° |
| 2026-04-13 15:20 | 23.46877 | 58.11453 | 11884 ft | 320 kts | 206° |
| 2026-04-13 15:21 | 23.44772 | 58.10502 | 12526 ft | 335 kts | 206° |
| 2026-04-13 15:21 | 23.42570 | 58.09512 | 13172 ft | 350 kts | 206° |
| 2026-04-13 15:21 | 23.40298 | 58.08494 | 13778 ft | 365 kts | 206° |
| 2026-04-13 15:21 | 23.37913 | 58.07428 | 14408 ft | 375 kts | 206° |
| 2026-04-13 15:22 | 23.35483 | 58.06341 | 15243 ft | 379 kts | 206° |
| 2026-04-13 15:22 | 23.33033 | 58.05243 | 16068 ft | 383 kts | 206° |
| 2026-04-13 15:22 | 23.30561 | 58.04135 | 16874 ft | 386 kts | 206° |
| 2026-04-13 15:22 | 23.28124 | 58.02887 | 17582 ft | 388 kts | 214° |
| 2026-04-13 15:23 | 23.25973 | 58.01120 | 18331 ft | 388 kts | 224° |
| 2026-04-13 15:23 | 23.24212 | 57.98940 | 18942 ft | 389 kts | 235° |
| 2026-04-13 15:23 | 23.22862 | 57.96353 | 19594 ft | 391 kts | 246° |
| 2026-04-13 15:23 | 23.21895 | 57.93580 | 20231 ft | 394 kts | 250° |
| 2026-04-13 15:24 | 23.20937 | 57.90769 | 20881 ft | 397 kts | 250° |
| 2026-04-13 15:24 | 23.19977 | 57.87979 | 21495 ft | 401 kts | 249° |
| 2026-04-13 15:24 | 23.18990 | 57.85128 | 22131 ft | 404 kts | 249° |
| 2026-04-13 15:24 | 23.17999 | 57.82254 | 22764 ft | 408 kts | 249° |
| 2026-04-13 15:25 | 23.17001 | 57.79354 | 23417 ft | 411 kts | 249° |
| 2026-04-13 15:25 | 23.15993 | 57.76431 | 23921 ft | 415 kts | 250° |
| 2026-04-13 15:25 | 23.14976 | 57.73488 | 24410 ft | 416 kts | 250° |
| 2026-04-13 15:25 | 23.13952 | 57.70527 | 24886 ft | 420 kts | 249° |
| 2026-04-13 15:26 | 23.12924 | 57.67554 | 25424 ft | 420 kts | 250° |
| 2026-04-13 15:26 | 23.11895 | 57.64580 | 25926 ft | 421 kts | 249° |
| 2026-04-13 15:26 | 23.10860 | 57.61588 | 26383 ft | 423 kts | 249° |
| 2026-04-13 15:26 | 23.09821 | 57.58591 | 26858 ft | 425 kts | 249° |
| 2026-04-13 15:27 | 23.08793 | 57.55629 | 27407 ft | 424 kts | 250° |
| 2026-04-13 15:27 | 23.07745 | 57.52608 | 28072 ft | 421 kts | 249° |
| 2026-04-13 15:27 | 23.06728 | 57.49676 | 28743 ft | 418 kts | 249° |
| 2026-04-13 15:27 | 23.05705 | 57.46733 | 29344 ft | 416 kts | 249° |
| 2026-04-13 15:28 | 23.04684 | 57.43799 | 29816 ft | 415 kts | 250° |
| 2026-04-13 15:28 | 23.03662 | 57.40861 | 30086 ft | 418 kts | 250° |
| 2026-04-13 15:28 | 23.02629 | 57.37894 | 30074 ft | 421 kts | 249° |
| 2026-04-13 15:29 | 23.00572 | 57.31994 | 30070 ft | 415 kts | 249° |
| 2026-04-13 15:29 | 22.98038 | 57.26369 | 30063 ft | 416 kts | 243° |
| 2026-04-13 15:30 | 22.95396 | 57.20785 | 30052 ft | 416 kts | 243° |
| 2026-04-13 15:30 | 22.92726 | 57.15211 | 30044 ft | 416 kts | 243° |
| 2026-04-13 15:31 | 22.90066 | 57.09636 | 30051 ft | 416 kts | 243° |
| 2026-04-13 15:31 | 22.87406 | 57.04079 | 30038 ft | 414 kts | 243° |
| 2026-04-13 15:32 | 22.84753 | 56.98539 | 30037 ft | 414 kts | 243° |
| 2026-04-13 15:32 | 22.82109 | 56.93022 | 30032 ft | 415 kts | 243° |
| 2026-04-13 15:33 | 22.79442 | 56.87462 | 30029 ft | 415 kts | 243° |
| 2026-04-13 15:33 | 22.76776 | 56.81911 | 30031 ft | 415 kts | 243° |
| 2026-04-13 15:34 | 22.72779 | 56.73600 | 30023 ft | 415 kts | 243° |
| 2026-04-13 15:34 | 22.70111 | 56.68057 | 30016 ft | 415 kts | 243° |
| 2026-04-13 15:35 | 22.67440 | 56.62519 | 30007 ft | 415 kts | 243° |
| 2026-04-13 15:35 | 22.64768 | 56.56980 | 30004 ft | 415 kts | 243° |
| 2026-04-13 15:36 | 22.62082 | 56.51420 | 29999 ft | 417 kts | 243° |
| 2026-04-13 15:36 | 22.59393 | 56.45861 | 29999 ft | 416 kts | 243° |
| 2026-04-13 15:37 | 22.56726 | 56.40353 | 30001 ft | 416 kts | 243° |
| 2026-04-13 15:37 | 22.54044 | 56.34818 | 29988 ft | 415 kts | 243° |
| 2026-04-13 15:38 | 22.51368 | 56.29290 | 29987 ft | 415 kts | 243° |
| 2026-04-13 15:38 | 22.48687 | 56.23764 | 29989 ft | 415 kts | 243° |
| 2026-04-13 15:39 | 22.46003 | 56.18234 | 29989 ft | 415 kts | 243° |
| 2026-04-13 15:39 | 22.43316 | 56.12706 | 29989 ft | 416 kts | 243° |
| 2026-04-13 15:40 | 22.40624 | 56.07173 | 29993 ft | 416 kts | 243° |
| 2026-04-13 15:40 | 22.37932 | 56.01646 | 29997 ft | 416 kts | 243° |
| 2026-04-13 15:41 | 22.35223 | 55.96121 | 29990 ft | 416 kts | 242° |
| 2026-04-13 15:41 | 22.32512 | 55.90605 | 29985 ft | 416 kts | 243° |
| 2026-04-13 15:42 | 22.29802 | 55.85089 | 29983 ft | 415 kts | 242° |
| 2026-04-13 15:42 | 22.27090 | 55.79581 | 29983 ft | 415 kts | 242° |
| 2026-04-13 15:43 | 22.24384 | 55.74077 | 29973 ft | 415 kts | 242° |
| 2026-04-13 15:43 | 22.21680 | 55.68560 | 29975 ft | 416 kts | 242° |
| 2026-04-13 15:44 | 22.18983 | 55.63077 | 29976 ft | 417 kts | 242° |
| 2026-04-13 15:44 | 22.16845 | 55.57279 | 29967 ft | 418 kts | 255° |
| 2026-04-13 15:45 | 22.16298 | 55.51036 | 29976 ft | 422 kts | 269° |
| 2026-04-13 15:45 | 22.16935 | 55.44739 | 29979 ft | 422 kts | 272° |
| 2026-04-13 15:46 | 22.17587 | 55.38444 | 29987 ft | 423 kts | 272° |
| 2026-04-13 15:46 | 22.18254 | 55.32141 | 29988 ft | 422 kts | 272° |
| 2026-04-13 15:47 | 22.18910 | 55.25846 | 29991 ft | 421 kts | 272° |
| 2026-04-13 15:47 | 22.19563 | 55.19571 | 29985 ft | 421 kts | 272° |
| 2026-04-13 15:48 | 22.20214 | 55.13301 | 29989 ft | 421 kts | 272° |
| 2026-04-13 15:48 | 22.20858 | 55.07062 | 29986 ft | 421 kts | 272° |
| 2026-04-13 15:49 | 22.21506 | 55.00764 | 29990 ft | 422 kts | 272° |
| 2026-04-13 15:49 | 22.22152 | 54.94461 | 29997 ft | 423 kts | 272° |
| 2026-04-13 15:50 | 22.22798 | 54.88147 | 29989 ft | 423 kts | 272° |
| 2026-04-13 15:50 | 22.23439 | 54.81843 | 29985 ft | 421 kts | 272° |
| 2026-04-13 15:51 | 22.24071 | 54.75609 | 29978 ft | 417 kts | 272° |
| 2026-04-13 15:51 | 22.24700 | 54.69358 | 29985 ft | 420 kts | 272° |
| 2026-04-13 15:52 | 22.25333 | 54.63090 | 29998 ft | 420 kts | 272° |
| 2026-04-13 15:52 | 22.25956 | 54.56859 | 29997 ft | 420 kts | 272° |
| 2026-04-13 15:53 | 22.26583 | 54.50587 | 29999 ft | 420 kts | 272° |
| 2026-04-13 15:53 | 22.27207 | 54.44303 | 29992 ft | 421 kts | 272° |
| 2026-04-13 15:54 | 22.27828 | 54.38036 | 29994 ft | 419 kts | 272° |
| 2026-04-13 15:54 | 22.28445 | 54.31771 | 30001 ft | 420 kts | 272° |
| 2026-04-13 15:55 | 22.29062 | 54.25490 | 30000 ft | 421 kts | 272° |
| 2026-04-13 15:55 | 22.29677 | 54.19207 | 30004 ft | 421 kts | 271° |
| 2026-04-13 15:56 | 22.30284 | 54.12969 | 30002 ft | 421 kts | 272° |
| 2026-04-13 15:56 | 22.30894 | 54.06681 | 30016 ft | 421 kts | 271° |
| 2026-04-13 15:57 | 22.31499 | 54.00431 | 30008 ft | 416 kts | 271° |
| 2026-04-13 15:57 | 22.32097 | 53.94197 | 30012 ft | 418 kts | 271° |
| 2026-04-13 15:58 | 22.32698 | 53.87948 | 30007 ft | 418 kts | 271° |
| 2026-04-13 15:58 | 22.33292 | 53.81702 | 30006 ft | 418 kts | 271° |
| 2026-04-13 15:59 | 22.33889 | 53.75454 | 30011 ft | 418 kts | 271° |
| 2026-04-13 15:59 | 22.34479 | 53.69210 | 30013 ft | 418 kts | 271° |
| 2026-04-13 16:00 | 22.35064 | 53.63004 | 30015 ft | 418 kts | 271° |
| 2026-04-13 16:00 | 22.35651 | 53.56762 | 30010 ft | 418 kts | 271° |
| 2026-04-13 16:01 | 22.36234 | 53.50519 | 30015 ft | 418 kts | 271° |
| 2026-04-13 16:01 | 22.36719 | 53.45321 | 30024 ft | 418 kts | 271° |
| 2026-04-13 16:02 | 22.37298 | 53.39078 | 30025 ft | 417 kts | 271° |
| 2026-04-13 16:02 | 22.37875 | 53.32842 | 30034 ft | 417 kts | 271° |
| 2026-04-13 16:03 | 22.38446 | 53.26629 | 30011 ft | 414 kts | 271° |
| 2026-04-13 16:03 | 22.39015 | 53.20419 | 30017 ft | 416 kts | 271° |
| 2026-04-13 16:04 | 22.39580 | 53.14231 | 30023 ft | 417 kts | 271° |
| 2026-04-13 16:04 | 22.40147 | 53.07985 | 30020 ft | 417 kts | 271° |
| 2026-04-13 16:05 | 22.40712 | 53.01736 | 30020 ft | 418 kts | 271° |
| 2026-04-13 16:05 | 22.41277 | 52.95478 | 30020 ft | 418 kts | 271° |
| 2026-04-13 16:06 | 22.41836 | 52.89240 | 30018 ft | 416 kts | 271° |
| 2026-04-13 16:06 | 22.42391 | 52.83021 | 30017 ft | 415 kts | 271° |
| 2026-04-13 16:07 | 22.42943 | 52.76809 | 30014 ft | 415 kts | 271° |
| 2026-04-13 16:07 | 22.43495 | 52.70565 | 30022 ft | 418 kts | 271° |
| 2026-04-13 16:08 | 22.44047 | 52.64312 | 30019 ft | 417 kts | 271° |
| 2026-04-13 16:08 | 22.44591 | 52.58100 | 30007 ft | 418 kts | 271° |
| 2026-04-13 16:09 | 22.45137 | 52.51862 | 30001 ft | 416 kts | 271° |
| 2026-04-13 16:09 | 22.45678 | 52.45623 | 30014 ft | 418 kts | 271° |
| 2026-04-13 16:10 | 22.46221 | 52.39368 | 30011 ft | 417 kts | 271° |
| 2026-04-13 16:10 | 22.46759 | 52.33119 | 30005 ft | 417 kts | 271° |
| 2026-04-13 16:11 | 22.47298 | 52.26788 | 30029 ft | 432 kts | 271° |
| 2026-04-13 16:11 | 22.47864 | 52.20167 | 30036 ft | 451 kts | 271° |
| 2026-04-13 16:12 | 22.48446 | 52.13350 | 30026 ft | 456 kts | 271° |
| 2026-04-13 16:12 | 22.49024 | 52.06505 | 30022 ft | 457 kts | 271° |
| 2026-04-13 16:13 | 22.49599 | 51.99666 | 30023 ft | 457 kts | 271° |
| 2026-04-13 16:13 | 22.50170 | 51.92851 | 30036 ft | 457 kts | 271° |
| 2026-04-13 16:14 | 22.50740 | 51.85991 | 30022 ft | 457 kts | 271° |
| 2026-04-13 16:14 | 22.51307 | 51.79152 | 30032 ft | 456 kts | 271° |
| 2026-04-13 16:15 | 22.51870 | 51.72304 | 30039 ft | 457 kts | 271° |
| 2026-04-13 16:15 | 22.52428 | 51.65508 | 30035 ft | 456 kts | 271° |
| 2026-04-13 16:16 | 22.52984 | 51.58675 | 30035 ft | 457 kts | 271° |
| 2026-04-13 16:16 | 22.53541 | 51.51815 | 30034 ft | 457 kts | 271° |
| 2026-04-13 16:17 | 22.54093 | 51.44962 | 30036 ft | 456 kts | 271° |
| 2026-04-13 16:17 | 22.54642 | 51.38128 | 30035 ft | 456 kts | 271° |
| 2026-04-13 16:18 | 22.55187 | 51.31292 | 30038 ft | 456 kts | 271° |
| 2026-04-13 16:18 | 22.55730 | 51.24458 | 30039 ft | 455 kts | 271° |
| 2026-04-13 16:19 | 22.56268 | 51.17634 | 30037 ft | 455 kts | 271° |
| 2026-04-13 16:19 | 22.56805 | 51.10788 | 30040 ft | 457 kts | 271° |
| 2026-04-13 16:20 | 22.57339 | 51.03961 | 30039 ft | 457 kts | 271° |
| 2026-04-13 16:20 | 22.57872 | 50.97096 | 30040 ft | 457 kts | 271° |
| 2026-04-13 16:21 | 22.58401 | 50.90237 | 30038 ft | 457 kts | 271° |
| 2026-04-13 16:21 | 22.58928 | 50.83377 | 30038 ft | 458 kts | 271° |
| 2026-04-13 16:22 | 22.59453 | 50.76507 | 30040 ft | 458 kts | 271° |
| 2026-04-13 16:23 | 22.60233 | 50.66213 | 30038 ft | 457 kts | 271° |
| 2026-04-13 16:23 | 22.60750 | 50.59344 | 30036 ft | 460 kts | 271° |
| 2026-04-13 16:24 | 22.61267 | 50.52442 | 30040 ft | 460 kts | 271° |
| 2026-04-13 16:24 | 22.61780 | 50.45541 | 30041 ft | 460 kts | 271° |
| 2026-04-13 16:25 | 22.62291 | 50.38637 | 30039 ft | 461 kts | 271° |
| 2026-04-13 16:25 | 22.62797 | 50.31754 | 30042 ft | 460 kts | 271° |
| 2026-04-13 16:26 | 22.63302 | 50.24854 | 30037 ft | 459 kts | 271° |
| 2026-04-13 16:26 | 22.63803 | 50.17960 | 30038 ft | 459 kts | 271° |
| 2026-04-13 16:27 | 22.64303 | 50.11035 | 30040 ft | 462 kts | 271° |
| 2026-04-13 16:27 | 22.64802 | 50.04099 | 30045 ft | 462 kts | 271° |
| 2026-04-13 16:28 | 22.65297 | 49.97156 | 30049 ft | 462 kts | 271° |
| 2026-04-13 16:28 | 22.65790 | 49.90197 | 30041 ft | 464 kts | 271° |
| 2026-04-13 16:29 | 22.66283 | 49.83221 | 30044 ft | 463 kts | 271° |
| 2026-04-13 16:29 | 22.66765 | 49.76327 | 30051 ft | 461 kts | 271° |
| 2026-04-13 16:30 | 22.67249 | 49.69384 | 30043 ft | 464 kts | 271° |
| 2026-04-13 16:30 | 22.67732 | 49.62420 | 30046 ft | 463 kts | 271° |
| 2026-04-13 16:31 | 22.68209 | 49.55468 | 30047 ft | 462 kts | 271° |
| 2026-04-13 16:31 | 22.68685 | 49.48497 | 30045 ft | 465 kts | 271° |
| 2026-04-13 16:32 | 22.69160 | 49.41508 | 30048 ft | 465 kts | 271° |
| 2026-04-13 16:32 | 22.69631 | 49.34521 | 30057 ft | 465 kts | 271° |
| 2026-04-13 16:33 | 22.70097 | 49.27566 | 30055 ft | 466 kts | 271° |
| 2026-04-13 16:33 | 22.70564 | 49.20545 | 30062 ft | 467 kts | 271° |
| 2026-04-13 16:34 | 22.71029 | 49.13530 | 30074 ft | 466 kts | 271° |
| 2026-04-13 16:34 | 22.71492 | 49.06467 | 30055 ft | 469 kts | 271° |
| 2026-04-13 16:35 | 22.71946 | 48.99522 | 30061 ft | 464 kts | 271° |
| 2026-04-13 16:35 | 22.72397 | 48.92539 | 30059 ft | 464 kts | 271° |
| 2026-04-13 16:36 | 22.72848 | 48.85565 | 30057 ft | 464 kts | 271° |
| 2026-04-13 16:36 | 22.73293 | 48.78585 | 30055 ft | 465 kts | 271° |
| 2026-04-13 16:37 | 22.73737 | 48.71594 | 30068 ft | 465 kts | 271° |
| 2026-04-13 16:37 | 22.74175 | 48.64655 | 30073 ft | 464 kts | 271° |
| 2026-04-13 16:38 | 22.74612 | 48.57664 | 30067 ft | 465 kts | 270° |
| 2026-04-13 16:38 | 22.75047 | 48.50678 | 30070 ft | 465 kts | 271° |
| 2026-04-13 16:39 | 22.75478 | 48.43697 | 30084 ft | 463 kts | 270° |
| 2026-04-13 16:39 | 22.75904 | 48.36752 | 30084 ft | 461 kts | 270° |
| 2026-04-13 16:40 | 22.76327 | 48.29796 | 30153 ft | 464 kts | 270° |
| 2026-04-13 16:40 | 22.76538 | 48.26315 | 30567 ft | 462 kts | 270° |
| 2026-04-13 16:40 | 22.76748 | 48.22852 | 31012 ft | 459 kts | 270° |
| 2026-04-13 16:40 | 22.76955 | 48.19404 | 31443 ft | 457 kts | 270° |
| 2026-04-13 16:41 | 22.77157 | 48.16016 | 31864 ft | 455 kts | 270° |
| 2026-04-13 16:41 | 22.77361 | 48.12600 | 32298 ft | 453 kts | 270° |
| 2026-04-13 16:41 | 22.77564 | 48.09195 | 32735 ft | 451 kts | 270° |
| 2026-04-13 16:41 | 22.77764 | 48.05814 | 33163 ft | 449 kts | 270° |
| 2026-04-13 16:42 | 22.77962 | 48.02455 | 33586 ft | 446 kts | 269° |
| 2026-04-13 16:42 | 22.78160 | 47.99096 | 33919 ft | 446 kts | 269° |
| 2026-04-13 16:42 | 22.78356 | 47.95738 | 34074 ft | 448 kts | 269° |
| 2026-04-13 16:43 | 22.78748 | 47.89049 | 34065 ft | 441 kts | 269° |
| 2026-04-13 16:43 | 22.79129 | 47.82429 | 34079 ft | 441 kts | 269° |
| 2026-04-13 16:44 | 22.79509 | 47.75822 | 34067 ft | 440 kts | 269° |
| 2026-04-13 16:44 | 22.79887 | 47.69210 | 34066 ft | 439 kts | 269° |
| 2026-04-13 16:45 | 22.80261 | 47.62593 | 34070 ft | 439 kts | 269° |
| 2026-04-13 16:45 | 22.80633 | 47.55997 | 34078 ft | 437 kts | 269° |
| 2026-04-13 16:46 | 22.80999 | 47.49419 | 34083 ft | 437 kts | 269° |
| 2026-04-13 16:46 | 22.81364 | 47.42839 | 34083 ft | 438 kts | 269° |
| 2026-04-13 16:47 | 22.81665 | 47.37356 | 34082 ft | 439 kts | 269° |
| 2026-04-13 16:47 | 22.82084 | 47.29699 | 34085 ft | 436 kts | 269° |
| 2026-04-13 16:48 | 22.82381 | 47.24209 | 34082 ft | 436 kts | 269° |
| 2026-04-13 16:48 | 22.82734 | 47.17635 | 34076 ft | 438 kts | 269° |
| 2026-04-13 16:49 | 22.83086 | 47.11062 | 34087 ft | 439 kts | 269° |
| 2026-04-13 16:49 | 22.83436 | 47.04450 | 34089 ft | 439 kts | 269° |
| 2026-04-13 16:50 | 22.83784 | 46.97840 | 34080 ft | 438 kts | 269° |
| 2026-04-13 16:50 | 22.84128 | 46.91228 | 34083 ft | 440 kts | 269° |
| 2026-04-13 16:51 | 22.84472 | 46.84599 | 34076 ft | 440 kts | 269° |
| 2026-04-13 16:51 | 22.84811 | 46.77976 | 34090 ft | 440 kts | 269° |
| 2026-04-13 16:52 | 22.85148 | 46.71366 | 34079 ft | 439 kts | 269° |
| 2026-04-13 16:52 | 22.85479 | 46.64801 | 34083 ft | 438 kts | 269° |
| 2026-04-13 16:53 | 22.85809 | 46.58203 | 34097 ft | 440 kts | 269° |
| 2026-04-13 16:53 | 22.86140 | 46.51526 | 34089 ft | 446 kts | 269° |
| 2026-04-13 16:54 | 22.86472 | 46.44820 | 34092 ft | 445 kts | 269° |
| 2026-04-13 16:54 | 22.86798 | 46.38121 | 34095 ft | 445 kts | 269° |
| 2026-04-13 16:55 | 22.87124 | 46.31406 | 34089 ft | 446 kts | 269° |
| 2026-04-13 16:55 | 22.87446 | 46.24697 | 34084 ft | 445 kts | 269° |
| 2026-04-13 16:56 | 22.87764 | 46.17992 | 34091 ft | 445 kts | 269° |
| 2026-04-13 16:56 | 22.88080 | 46.11299 | 34082 ft | 444 kts | 269° |
| 2026-04-13 16:57 | 22.88390 | 46.04663 | 34071 ft | 443 kts | 269° |
| 2026-04-13 16:57 | 22.88700 | 45.97981 | 34088 ft | 442 kts | 269° |
| 2026-04-13 16:58 | 22.89004 | 45.91331 | 34077 ft | 440 kts | 269° |
| 2026-04-13 16:58 | 22.89306 | 45.84687 | 34078 ft | 441 kts | 269° |
| 2026-04-13 16:59 | 22.89606 | 45.78037 | 34081 ft | 442 kts | 269° |
| 2026-04-13 16:59 | 22.89901 | 45.71400 | 34089 ft | 444 kts | 269° |
| 2026-04-13 17:00 | 22.90198 | 45.64715 | 34089 ft | 443 kts | 269° |
| 2026-04-13 17:00 | 22.90490 | 45.58040 | 34082 ft | 443 kts | 269° |
| 2026-04-13 17:01 | 22.90779 | 45.51359 | 34080 ft | 444 kts | 269° |
| 2026-04-13 17:01 | 22.91067 | 45.44656 | 34082 ft | 445 kts | 269° |
| 2026-04-13 17:02 | 22.91353 | 45.37956 | 34092 ft | 445 kts | 269° |
| 2026-04-13 17:02 | 22.91635 | 45.31198 | 34097 ft | 450 kts | 269° |
| 2026-04-13 17:03 | 22.91918 | 45.24472 | 34086 ft | 448 kts | 269° |
| 2026-04-13 17:03 | 22.92195 | 45.17718 | 34073 ft | 449 kts | 269° |
| 2026-04-13 17:04 | 22.92474 | 45.10883 | 34076 ft | 455 kts | 269° |
| 2026-04-13 17:04 | 22.92752 | 45.04035 | 34073 ft | 454 kts | 269° |
| 2026-04-13 17:05 | 22.93024 | 44.97189 | 34083 ft | 457 kts | 269° |
| 2026-04-13 17:05 | 22.93300 | 44.90205 | 34080 ft | 467 kts | 269° |
| 2026-04-13 17:06 | 22.93577 | 44.83150 | 34084 ft | 468 kts | 269° |
| 2026-04-13 17:06 | 22.93849 | 44.76102 | 34080 ft | 468 kts | 269° |
| 2026-04-13 17:07 | 22.94162 | 44.69055 | 34069 ft | 469 kts | 272° |
| 2026-04-13 17:07 | 22.95862 | 44.62177 | 34072 ft | 476 kts | 286° |
| 2026-04-13 17:08 | 22.98194 | 44.55400 | 34079 ft | 483 kts | 285° |
| 2026-04-13 17:08 | 23.00505 | 44.48629 | 34084 ft | 481 kts | 285° |
| 2026-04-13 17:09 | 23.02833 | 44.41822 | 34095 ft | 481 kts | 284° |
| 2026-04-13 17:09 | 23.05158 | 44.34998 | 34067 ft | 481 kts | 284° |
| 2026-04-13 17:10 | 23.07482 | 44.28175 | 34074 ft | 481 kts | 284° |
| 2026-04-13 17:10 | 23.09800 | 44.21358 | 34092 ft | 481 kts | 284° |
| 2026-04-13 17:11 | 23.12103 | 44.14572 | 34076 ft | 478 kts | 284° |
| 2026-04-13 17:11 | 23.14399 | 44.07790 | 34074 ft | 478 kts | 284° |
| 2026-04-13 17:12 | 23.16696 | 44.01001 | 34076 ft | 479 kts | 284° |
| 2026-04-13 17:12 | 23.18985 | 43.94227 | 34072 ft | 476 kts | 284° |
| 2026-04-13 17:13 | 23.21267 | 43.87454 | 34078 ft | 477 kts | 284° |
| 2026-04-13 17:13 | 23.23536 | 43.80719 | 34076 ft | 477 kts | 284° |
| 2026-04-13 17:14 | 23.25803 | 43.73973 | 34077 ft | 474 kts | 283° |
| 2026-04-13 17:14 | 23.28061 | 43.67239 | 34077 ft | 474 kts | 284° |
| 2026-04-13 17:15 | 23.30318 | 43.60510 | 34072 ft | 473 kts | 283° |
| 2026-04-13 17:15 | 23.32567 | 43.53779 | 34071 ft | 474 kts | 283° |
| 2026-04-13 17:16 | 23.34825 | 43.47021 | 34072 ft | 475 kts | 283° |
| 2026-04-13 17:16 | 23.37078 | 43.40262 | 34069 ft | 475 kts | 283° |
| 2026-04-13 17:17 | 23.39333 | 43.33486 | 34074 ft | 476 kts | 283° |
| 2026-04-13 17:17 | 23.41583 | 43.26719 | 34074 ft | 475 kts | 283° |
| 2026-04-13 17:18 | 23.43815 | 43.19985 | 34072 ft | 475 kts | 284° |
| 2026-04-13 17:18 | 23.46067 | 43.13192 | 34077 ft | 478 kts | 284° |
| 2026-04-13 17:19 | 23.48320 | 43.06377 | 34069 ft | 477 kts | 284° |
| 2026-04-13 17:19 | 23.50561 | 42.99587 | 34074 ft | 475 kts | 284° |
| 2026-04-13 17:20 | 23.52793 | 42.92818 | 34076 ft | 475 kts | 284° |
| 2026-04-13 17:20 | 23.55027 | 42.86025 | 34074 ft | 476 kts | 284° |
| 2026-04-13 17:21 | 23.57263 | 42.79220 | 34078 ft | 477 kts | 284° |
| 2026-04-13 17:21 | 23.59486 | 42.72440 | 34074 ft | 478 kts | 284° |
| 2026-04-13 17:22 | 23.61721 | 42.65617 | 34070 ft | 476 kts | 284° |
| 2026-04-13 17:22 | 23.63940 | 42.58823 | 34065 ft | 474 kts | 285° |
| 2026-04-13 17:23 | 23.66149 | 42.52060 | 34065 ft | 472 kts | 285° |
| 2026-04-13 17:23 | 23.68351 | 42.45293 | 34067 ft | 474 kts | 285° |
| 2026-04-13 17:24 | 23.70561 | 42.38500 | 34065 ft | 476 kts | 285° |
| 2026-04-13 17:24 | 23.72775 | 42.31683 | 34058 ft | 476 kts | 285° |
| 2026-04-13 17:25 | 23.74966 | 42.24924 | 34051 ft | 474 kts | 285° |
| 2026-04-13 17:25 | 23.77163 | 42.18132 | 34030 ft | 475 kts | 285° |
| 2026-04-13 17:26 | 23.79356 | 42.11346 | 34031 ft | 473 kts | 285° |
| 2026-04-13 17:26 | 23.81541 | 42.04569 | 34029 ft | 473 kts | 285° |
| 2026-04-13 17:27 | 23.84812 | 41.94406 | 34017 ft | 469 kts | 286° |
| 2026-04-13 17:27 | 23.86968 | 41.87692 | 34017 ft | 469 kts | 285° |
| 2026-04-13 17:28 | 23.89128 | 41.80953 | 34012 ft | 471 kts | 285° |
| 2026-04-13 17:28 | 23.91279 | 41.74234 | 34013 ft | 468 kts | 286° |
| 2026-04-13 17:29 | 23.93414 | 41.67552 | 34011 ft | 466 kts | 286° |
| 2026-04-13 17:29 | 23.95550 | 41.60854 | 34011 ft | 467 kts | 286° |
| 2026-04-13 17:30 | 23.97686 | 41.54147 | 34018 ft | 466 kts | 286° |
| 2026-04-13 17:30 | 23.99809 | 41.47467 | 34016 ft | 464 kts | 286° |
| 2026-04-13 17:31 | 24.01928 | 41.40791 | 34015 ft | 464 kts | 286° |
| 2026-04-13 17:31 | 24.04043 | 41.34113 | 34022 ft | 465 kts | 286° |
| 2026-04-13 17:32 | 24.06154 | 41.27440 | 34007 ft | 463 kts | 286° |
| 2026-04-13 17:32 | 24.08257 | 41.20781 | 34005 ft | 463 kts | 286° |
| 2026-04-13 17:33 | 24.10346 | 41.14152 | 34007 ft | 464 kts | 286° |
| 2026-04-13 17:33 | 24.12453 | 41.07455 | 34015 ft | 466 kts | 286° |
| 2026-04-13 17:34 | 24.15612 | 40.97395 | 34011 ft | 465 kts | 286° |
| 2026-04-13 17:35 | 24.17356 | 40.91831 | 34009 ft | 464 kts | 286° |
| 2026-04-13 17:35 | 24.19446 | 40.85151 | 34010 ft | 463 kts | 286° |
| 2026-04-13 17:36 | 24.21533 | 40.78468 | 34010 ft | 464 kts | 286° |
| 2026-04-13 17:36 | 24.23621 | 40.71770 | 34011 ft | 464 kts | 286° |
| 2026-04-13 17:37 | 24.25707 | 40.65070 | 34009 ft | 465 kts | 286° |
| 2026-04-13 17:37 | 24.27794 | 40.58354 | 34010 ft | 465 kts | 286° |
| 2026-04-13 17:38 | 24.29873 | 40.51650 | 34011 ft | 465 kts | 286° |
| 2026-04-13 17:38 | 24.31950 | 40.44943 | 34010 ft | 465 kts | 286° |
| 2026-04-13 17:39 | 24.34022 | 40.38240 | 34009 ft | 464 kts | 286° |
| 2026-04-13 17:39 | 24.36077 | 40.31579 | 34007 ft | 463 kts | 286° |
| 2026-04-13 17:40 | 24.38139 | 40.24882 | 34011 ft | 464 kts | 286° |
| 2026-04-13 17:40 | 24.40207 | 40.18159 | 34012 ft | 464 kts | 286° |
| 2026-04-13 17:41 | 24.42271 | 40.11433 | 34018 ft | 465 kts | 286° |
| 2026-04-13 17:41 | 24.44334 | 40.04699 | 34017 ft | 466 kts | 286° |
| 2026-04-13 17:42 | 24.46379 | 39.98014 | 34019 ft | 464 kts | 286° |
| 2026-04-13 17:42 | 24.48427 | 39.91305 | 34020 ft | 463 kts | 286° |
| 2026-04-13 17:43 | 24.50471 | 39.84599 | 34022 ft | 463 kts | 286° |
| 2026-04-13 17:43 | 24.52510 | 39.77898 | 34027 ft | 463 kts | 286° |
| 2026-04-13 17:44 | 24.54707 | 39.71249 | 34010 ft | 465 kts | 294° |
| 2026-04-13 17:44 | 24.58337 | 39.65314 | 34022 ft | 470 kts | 304° |
| 2026-04-13 17:45 | 24.62295 | 39.59580 | 34016 ft | 471 kts | 303° |
| 2026-04-13 17:45 | 24.66248 | 39.53822 | 34014 ft | 470 kts | 304° |
| 2026-04-13 17:46 | 24.70193 | 39.48085 | 34007 ft | 470 kts | 303° |
| 2026-04-13 17:46 | 24.74131 | 39.42342 | 34001 ft | 470 kts | 304° |
| 2026-04-13 17:47 | 24.78070 | 39.36597 | 33995 ft | 470 kts | 303° |
| 2026-04-13 17:47 | 24.81980 | 39.30883 | 34004 ft | 470 kts | 304° |
| 2026-04-13 17:48 | 24.85920 | 39.25122 | 33998 ft | 470 kts | 303° |
| 2026-04-13 17:48 | 24.89851 | 39.19365 | 33997 ft | 471 kts | 303° |
| 2026-04-13 17:49 | 24.93788 | 39.13593 | 33989 ft | 470 kts | 304° |
| 2026-04-13 17:49 | 24.97719 | 39.07822 | 33992 ft | 471 kts | 304° |
| 2026-04-13 17:50 | 25.01647 | 39.02051 | 33991 ft | 470 kts | 303° |
| 2026-04-13 17:50 | 25.05570 | 38.96276 | 33993 ft | 469 kts | 303° |
| 2026-04-13 17:51 | 25.09462 | 38.90543 | 33985 ft | 469 kts | 303° |
| 2026-04-13 17:51 | 25.13376 | 38.84769 | 33989 ft | 469 kts | 304° |
| 2026-04-13 17:52 | 25.17288 | 38.78993 | 33982 ft | 469 kts | 303° |
| 2026-04-13 17:52 | 25.21161 | 38.73265 | 33973 ft | 468 kts | 303° |
| 2026-04-13 17:53 | 25.24423 | 38.68438 | 33972 ft | 468 kts | 303° |
| 2026-04-13 17:53 | 25.28958 | 38.61716 | 33956 ft | 469 kts | 304° |
| 2026-04-13 17:54 | 25.32850 | 38.55941 | 33953 ft | 469 kts | 304° |
| 2026-04-13 17:54 | 25.36748 | 38.50148 | 33949 ft | 469 kts | 304° |
| 2026-04-13 17:55 | 25.40642 | 38.44356 | 33948 ft | 470 kts | 303° |
| 2026-04-13 17:55 | 25.44540 | 38.38550 | 33957 ft | 470 kts | 304° |
| 2026-04-13 17:56 | 25.48409 | 38.32782 | 33956 ft | 469 kts | 303° |
| 2026-04-13 17:56 | 25.52292 | 38.26982 | 33956 ft | 469 kts | 303° |
| 2026-04-13 17:57 | 25.56172 | 38.21182 | 33956 ft | 468 kts | 303° |
| 2026-04-13 17:57 | 25.60044 | 38.15385 | 33962 ft | 468 kts | 304° |
| 2026-04-13 17:58 | 25.63918 | 38.09580 | 33965 ft | 468 kts | 304° |
| 2026-04-13 17:58 | 25.67785 | 38.03778 | 33964 ft | 467 kts | 303° |
| 2026-04-13 17:59 | 25.71649 | 37.97972 | 33979 ft | 469 kts | 303° |
| 2026-04-13 17:59 | 25.75492 | 37.92193 | 33983 ft | 468 kts | 303° |
| 2026-04-13 18:00 | 25.79350 | 37.86380 | 33993 ft | 468 kts | 303° |
| 2026-04-13 18:00 | 25.83215 | 37.80553 | 34004 ft | 468 kts | 303° |
| 2026-04-13 18:01 | 25.87067 | 37.74735 | 33998 ft | 468 kts | 303° |
| 2026-04-13 18:01 | 25.90918 | 37.68915 | 34015 ft | 467 kts | 303° |
| 2026-04-13 18:02 | 25.94753 | 37.63110 | 34015 ft | 466 kts | 303° |
| 2026-04-13 18:02 | 25.98585 | 37.57300 | 34015 ft | 466 kts | 303° |
| 2026-04-13 18:03 | 26.02415 | 37.51489 | 34010 ft | 467 kts | 303° |
| 2026-04-13 18:03 | 26.06238 | 37.45679 | 34010 ft | 467 kts | 303° |
| 2026-04-13 18:04 | 26.10068 | 37.39854 | 34012 ft | 466 kts | 303° |
| 2026-04-13 18:04 | 26.13896 | 37.34022 | 34011 ft | 466 kts | 303° |
| 2026-04-13 18:05 | 26.17722 | 37.28186 | 34000 ft | 466 kts | 303° |
| 2026-04-13 18:05 | 26.21546 | 37.22347 | 33992 ft | 467 kts | 303° |
| 2026-04-13 18:06 | 26.25368 | 37.16502 | 34001 ft | 466 kts | 303° |
| 2026-04-13 18:06 | 26.29183 | 37.10662 | 33992 ft | 465 kts | 303° |
| 2026-04-13 18:07 | 26.32988 | 37.04829 | 34003 ft | 465 kts | 303° |
| 2026-04-13 18:07 | 26.36798 | 36.98980 | 33996 ft | 466 kts | 303° |
| 2026-04-13 18:08 | 26.40610 | 36.93121 | 33984 ft | 467 kts | 303° |
| 2026-04-13 18:08 | 26.44419 | 36.87260 | 33994 ft | 466 kts | 303° |
| 2026-04-13 18:09 | 26.48196 | 36.81439 | 33988 ft | 465 kts | 303° |
| 2026-04-13 18:09 | 26.51992 | 36.75582 | 33988 ft | 466 kts | 303° |
| 2026-04-13 18:10 | 26.55788 | 36.69717 | 33982 ft | 466 kts | 304° |
| 2026-04-13 18:10 | 26.59586 | 36.63843 | 33980 ft | 466 kts | 303° |
| 2026-04-13 18:11 | 26.63381 | 36.57964 | 33982 ft | 467 kts | 303° |
| 2026-04-13 18:11 | 26.67185 | 36.52066 | 33982 ft | 467 kts | 303° |
| 2026-04-13 18:12 | 26.70953 | 36.46213 | 33971 ft | 465 kts | 304° |
| 2026-04-13 18:12 | 26.74730 | 36.40341 | 33968 ft | 464 kts | 303° |
| 2026-04-13 18:13 | 26.78499 | 36.34472 | 33991 ft | 464 kts | 304° |
| 2026-04-13 18:13 | 26.82273 | 36.28589 | 33981 ft | 465 kts | 303° |
| 2026-04-13 18:14 | 26.86045 | 36.22700 | 33984 ft | 465 kts | 304° |
| 2026-04-13 18:14 | 26.89818 | 36.16804 | 33985 ft | 465 kts | 304° |
| 2026-04-13 18:15 | 26.93555 | 36.10952 | 33980 ft | 464 kts | 304° |
| 2026-04-13 18:15 | 26.97314 | 36.05062 | 33989 ft | 464 kts | 304° |
| 2026-04-13 18:16 | 27.01068 | 35.99171 | 33993 ft | 465 kts | 304° |
| 2026-04-13 18:16 | 27.04841 | 35.93242 | 33996 ft | 467 kts | 304° |
| 2026-04-13 18:17 | 27.08607 | 35.87316 | 33997 ft | 465 kts | 303° |
| 2026-04-13 18:17 | 27.12363 | 35.81399 | 33996 ft | 464 kts | 303° |
| 2026-04-13 18:18 | 27.16097 | 35.75507 | 33999 ft | 463 kts | 303° |
| 2026-04-13 18:18 | 27.19826 | 35.69616 | 34004 ft | 463 kts | 304° |
| 2026-04-13 18:19 | 27.23535 | 35.63749 | 34006 ft | 465 kts | 304° |
| 2026-04-13 18:19 | 27.27279 | 35.57819 | 33994 ft | 466 kts | 304° |
| 2026-04-13 18:20 | 27.31026 | 35.51875 | 34004 ft | 466 kts | 304° |
| 2026-04-13 18:20 | 27.34763 | 35.45940 | 34014 ft | 464 kts | 304° |
| 2026-04-13 18:21 | 27.38486 | 35.40020 | 34012 ft | 463 kts | 304° |
| 2026-04-13 18:21 | 27.41574 | 35.35102 | 34009 ft | 462 kts | 304° |
| 2026-04-13 18:22 | 27.45283 | 35.29189 | 34008 ft | 462 kts | 304° |
| 2026-04-13 18:22 | 27.48988 | 35.23273 | 34016 ft | 462 kts | 304° |
| 2026-04-13 18:23 | 27.52683 | 35.17367 | 34010 ft | 461 kts | 304° |
| 2026-04-13 18:23 | 27.56381 | 35.11447 | 34017 ft | 462 kts | 304° |
| 2026-04-13 18:24 | 27.60078 | 35.05522 | 34012 ft | 463 kts | 304° |
| 2026-04-13 18:24 | 27.63782 | 34.99577 | 34010 ft | 463 kts | 304° |
| 2026-04-13 18:25 | 27.67449 | 34.93683 | 34002 ft | 460 kts | 304° |
| 2026-04-13 18:25 | 27.71120 | 34.87774 | 34009 ft | 460 kts | 304° |
| 2026-04-13 18:26 | 27.74790 | 34.81860 | 34008 ft | 460 kts | 304° |
| 2026-04-13 18:26 | 27.78460 | 34.75937 | 34007 ft | 459 kts | 304° |
| 2026-04-13 18:27 | 27.82117 | 34.70026 | 33997 ft | 458 kts | 304° |
| 2026-04-13 18:27 | 27.85769 | 34.64117 | 34000 ft | 459 kts | 304° |
| 2026-04-13 18:28 | 27.89428 | 34.58188 | 34001 ft | 460 kts | 304° |
| 2026-04-13 18:28 | 27.93073 | 34.52274 | 34010 ft | 461 kts | 304° |
| 2026-04-13 18:29 | 27.96730 | 34.46331 | 34010 ft | 459 kts | 304° |
| 2026-04-13 18:29 | 28.00615 | 34.40614 | 34007 ft | 460 kts | 313° |
| 2026-04-13 18:30 | 28.05439 | 34.35841 | 34023 ft | 462 kts | 317° |
| 2026-04-13 18:30 | 28.10304 | 34.31080 | 34031 ft | 462 kts | 317° |
| 2026-04-13 18:31 | 28.15169 | 34.26320 | 34040 ft | 462 kts | 317° |
| 2026-04-13 18:31 | 28.20040 | 34.21549 | 34066 ft | 462 kts | 317° |
| 2026-04-13 18:32 | 28.24859 | 34.16822 | 34066 ft | 459 kts | 317° |
| 2026-04-13 18:32 | 28.29700 | 34.12067 | 34065 ft | 461 kts | 317° |
| 2026-04-13 18:33 | 28.34544 | 34.07304 | 34082 ft | 461 kts | 317° |
| 2026-04-13 18:33 | 28.39397 | 34.02526 | 34086 ft | 462 kts | 317° |
| 2026-04-13 18:34 | 28.46668 | 33.95356 | 34075 ft | 462 kts | 317° |
| 2026-04-13 18:34 | 28.51527 | 33.90557 | 34077 ft | 462 kts | 317° |
| 2026-04-13 18:35 | 28.56379 | 33.85759 | 34077 ft | 462 kts | 317° |
| 2026-04-13 18:35 | 28.61203 | 33.80982 | 34084 ft | 462 kts | 317° |
| 2026-04-13 18:36 | 28.66048 | 33.76179 | 34069 ft | 461 kts | 317° |
| 2026-04-13 18:36 | 28.70885 | 33.71376 | 34069 ft | 461 kts | 317° |
| 2026-04-13 18:37 | 28.75726 | 33.66566 | 34072 ft | 461 kts | 317° |
| 2026-04-13 18:37 | 28.80540 | 33.61775 | 34069 ft | 459 kts | 317° |
| 2026-04-13 18:38 | 28.85354 | 33.56977 | 34073 ft | 459 kts | 317° |
| 2026-04-13 18:38 | 28.90140 | 33.52202 | 34079 ft | 460 kts | 317° |
| 2026-04-13 18:39 | 28.94972 | 33.47374 | 34081 ft | 460 kts | 317° |
| 2026-04-13 18:39 | 28.99788 | 33.42556 | 34084 ft | 461 kts | 317° |
| 2026-04-13 18:40 | 29.04610 | 33.37727 | 34080 ft | 461 kts | 317° |
| 2026-04-13 18:40 | 29.09435 | 33.32888 | 34072 ft | 461 kts | 317° |
| 2026-04-13 18:41 | 29.14253 | 33.28049 | 34081 ft | 461 kts | 317° |
| 2026-04-13 18:41 | 29.19071 | 33.23205 | 34071 ft | 461 kts | 317° |
| 2026-04-13 18:42 | 29.23887 | 33.18356 | 34072 ft | 461 kts | 317° |
| 2026-04-13 18:42 | 29.28671 | 33.13533 | 34072 ft | 460 kts | 317° |
| 2026-04-13 18:43 | 29.33481 | 33.08677 | 34069 ft | 460 kts | 317° |
| 2026-04-13 18:43 | 29.38284 | 33.03823 | 34064 ft | 459 kts | 317° |
| 2026-04-13 18:44 | 29.43072 | 32.98977 | 34068 ft | 459 kts | 317° |
| 2026-04-13 18:44 | 29.47853 | 32.94132 | 34082 ft | 459 kts | 317° |
| 2026-04-13 18:45 | 29.52624 | 32.89290 | 34083 ft | 460 kts | 317° |
| 2026-04-13 18:45 | 29.57417 | 32.84420 | 34085 ft | 459 kts | 317° |
| 2026-04-13 18:46 | 29.62195 | 32.79559 | 34088 ft | 459 kts | 317° |
| 2026-04-13 18:46 | 29.66979 | 32.74685 | 34092 ft | 460 kts | 317° |
| 2026-04-13 18:47 | 29.71779 | 32.69789 | 34091 ft | 461 kts | 317° |
| 2026-04-13 18:47 | 29.76577 | 32.64887 | 34093 ft | 462 kts | 317° |
| 2026-04-13 18:48 | 29.81386 | 32.59968 | 34097 ft | 461 kts | 316° |
| 2026-04-13 18:48 | 29.86139 | 32.55100 | 34089 ft | 459 kts | 316° |
| 2026-04-13 18:49 | 29.90942 | 32.50174 | 34096 ft | 459 kts | 316° |
| 2026-04-13 18:49 | 29.95671 | 32.45317 | 34095 ft | 458 kts | 316° |
| 2026-04-13 18:50 | 30.00431 | 32.40422 | 34101 ft | 458 kts | 316° |
| 2026-04-13 18:50 | 30.05188 | 32.35524 | 34100 ft | 458 kts | 316° |
| 2026-04-13 18:51 | 30.09938 | 32.30627 | 34102 ft | 457 kts | 316° |
| 2026-04-13 18:51 | 30.14679 | 32.25732 | 34124 ft | 457 kts | 316° |
| 2026-04-13 18:52 | 30.19433 | 32.20816 | 34116 ft | 459 kts | 316° |
| 2026-04-13 18:52 | 30.24192 | 32.15889 | 34125 ft | 460 kts | 316° |
| 2026-04-13 18:53 | 30.28952 | 32.10956 | 34121 ft | 459 kts | 316° |
| 2026-04-13 18:53 | 30.33695 | 32.06032 | 34122 ft | 456 kts | 316° |
| 2026-04-13 18:54 | 30.38379 | 32.01162 | 34129 ft | 455 kts | 316° |
| 2026-04-13 18:54 | 30.43102 | 31.96246 | 34135 ft | 457 kts | 316° |
| 2026-04-13 18:55 | 30.47836 | 31.91312 | 34152 ft | 458 kts | 316° |
| 2026-04-13 18:55 | 30.52569 | 31.86372 | 34140 ft | 457 kts | 316° |
| 2026-04-13 18:56 | 30.57288 | 31.81439 | 34144 ft | 456 kts | 316° |
| 2026-04-13 18:56 | 30.61995 | 31.76514 | 34142 ft | 454 kts | 316° |
| 2026-04-13 18:57 | 30.66679 | 31.71604 | 34140 ft | 454 kts | 316° |
| 2026-04-13 18:57 | 30.71374 | 31.66677 | 34144 ft | 455 kts | 316° |
| 2026-04-13 18:58 | 30.76068 | 31.61744 | 34147 ft | 455 kts | 316° |
| 2026-04-13 18:58 | 30.80772 | 31.56794 | 34149 ft | 456 kts | 316° |
| 2026-04-13 18:59 | 30.85473 | 31.51841 | 34156 ft | 455 kts | 316° |
| 2026-04-13 18:59 | 30.90112 | 31.46945 | 34157 ft | 452 kts | 316° |
| 2026-04-13 19:00 | 30.94770 | 31.42024 | 34154 ft | 452 kts | 316° |
| 2026-04-13 19:00 | 30.99435 | 31.37087 | 34152 ft | 452 kts | 316° |
| 2026-04-13 19:01 | 31.04097 | 31.32147 | 34159 ft | 453 kts | 316° |
| 2026-04-13 19:01 | 31.08762 | 31.27197 | 34158 ft | 454 kts | 316° |
| 2026-04-13 19:02 | 31.13437 | 31.22230 | 34160 ft | 453 kts | 315° |
| 2026-04-13 19:02 | 31.18083 | 31.17286 | 34144 ft | 451 kts | 315° |
| 2026-04-13 19:03 | 31.22711 | 31.12355 | 34142 ft | 450 kts | 315° |
| 2026-04-13 19:03 | 31.27341 | 31.07415 | 34141 ft | 451 kts | 315° |
| 2026-04-13 19:04 | 31.31953 | 31.02487 | 34147 ft | 453 kts | 315° |
| 2026-04-13 19:04 | 31.36608 | 30.97507 | 34148 ft | 453 kts | 315° |
| 2026-04-13 19:05 | 31.41253 | 30.92531 | 34177 ft | 453 kts | 315° |
| 2026-04-13 19:05 | 31.43578 | 30.90037 | 34499 ft | 452 kts | 315° |
| 2026-04-13 19:05 | 31.45897 | 30.87548 | 34875 ft | 450 kts | 315° |
| 2026-04-13 19:06 | 31.48200 | 30.85074 | 35241 ft | 449 kts | 315° |
| 2026-04-13 19:06 | 31.50498 | 30.82604 | 35615 ft | 448 kts | 315° |
| 2026-04-13 19:06 | 31.52790 | 30.80139 | 35950 ft | 446 kts | 315° |
| 2026-04-13 19:06 | 31.55074 | 30.77680 | 36283 ft | 445 kts | 315° |
| 2026-04-13 19:07 | 31.57353 | 30.75226 | 36615 ft | 444 kts | 315° |
| 2026-04-13 19:07 | 31.59625 | 30.72778 | 36953 ft | 443 kts | 315° |
| 2026-04-13 19:07 | 31.61126 | 30.71158 | 37151 ft | 443 kts | 315° |
| 2026-04-13 19:07 | 31.63390 | 30.68716 | 37463 ft | 442 kts | 315° |
| 2026-04-13 19:08 | 31.65647 | 30.66278 | 37791 ft | 441 kts | 315° |
| 2026-04-13 19:08 | 31.67900 | 30.63843 | 38052 ft | 441 kts | 315° |
| 2026-04-13 19:08 | 31.70166 | 30.61393 | 38154 ft | 443 kts | 315° |
| 2026-04-13 19:08 | 31.72437 | 30.58934 | 38153 ft | 442 kts | 315° |
| 2026-04-13 19:09 | 31.76904 | 30.54098 | 38153 ft | 438 kts | 315° |
| 2026-04-13 19:09 | 31.81392 | 30.49229 | 38148 ft | 439 kts | 315° |
| 2026-04-13 19:10 | 31.85868 | 30.44369 | 38162 ft | 437 kts | 315° |
| 2026-04-13 19:10 | 31.90325 | 30.39519 | 38162 ft | 435 kts | 314° |
| 2026-04-13 19:11 | 31.94763 | 30.34686 | 38157 ft | 434 kts | 314° |
| 2026-04-13 19:11 | 31.99208 | 30.29837 | 38163 ft | 436 kts | 314° |
| 2026-04-13 19:12 | 32.03667 | 30.24968 | 38169 ft | 437 kts | 314° |
| 2026-04-13 19:12 | 32.08129 | 30.20087 | 38166 ft | 438 kts | 314° |
| 2026-04-13 19:13 | 32.12589 | 30.15203 | 38165 ft | 436 kts | 314° |
| 2026-04-13 19:13 | 32.17027 | 30.10335 | 38179 ft | 435 kts | 314° |
| 2026-04-13 19:14 | 32.21453 | 30.05474 | 38175 ft | 434 kts | 314° |
| 2026-04-13 19:14 | 32.25871 | 30.00614 | 38176 ft | 435 kts | 314° |
| 2026-04-13 19:15 | 32.30306 | 29.95730 | 38176 ft | 436 kts | 314° |
| 2026-04-13 19:15 | 32.34751 | 29.90827 | 38179 ft | 438 kts | 314° |
| 2026-04-13 19:16 | 32.39197 | 29.85917 | 38174 ft | 437 kts | 314° |
| 2026-04-13 19:16 | 32.43601 | 29.81046 | 38165 ft | 435 kts | 314° |
| 2026-04-13 19:17 | 32.48012 | 29.76160 | 38183 ft | 434 kts | 314° |
| 2026-04-13 19:17 | 32.52432 | 29.71257 | 38174 ft | 436 kts | 314° |
| 2026-04-13 19:18 | 32.56870 | 29.66329 | 38179 ft | 437 kts | 314° |
| 2026-04-13 19:18 | 32.61293 | 29.61409 | 38179 ft | 436 kts | 314° |
| 2026-04-13 19:19 | 32.65713 | 29.56485 | 38176 ft | 435 kts | 314° |
| 2026-04-13 19:19 | 32.70095 | 29.51598 | 38174 ft | 434 kts | 314° |
| 2026-04-13 19:20 | 32.74493 | 29.46685 | 38172 ft | 434 kts | 314° |
| 2026-04-13 19:20 | 32.78902 | 29.41752 | 38173 ft | 436 kts | 314° |
| 2026-04-13 19:21 | 32.83322 | 29.36801 | 38173 ft | 437 kts | 314° |
| 2026-04-13 19:21 | 32.87739 | 29.31845 | 38172 ft | 436 kts | 314° |
| 2026-04-13 19:22 | 32.92141 | 29.26900 | 38170 ft | 434 kts | 314° |
| 2026-04-13 19:22 | 32.96534 | 29.21958 | 38179 ft | 433 kts | 313° |
| 2026-04-13 19:23 | 33.00887 | 29.17052 | 38177 ft | 434 kts | 313° |
| 2026-04-13 19:23 | 33.05284 | 29.12092 | 38178 ft | 436 kts | 313° |
| 2026-04-13 19:24 | 33.09695 | 29.07108 | 38173 ft | 437 kts | 313° |
| 2026-04-13 19:24 | 33.14098 | 29.02126 | 38181 ft | 435 kts | 313° |
| 2026-04-13 19:25 | 33.18485 | 28.97153 | 38177 ft | 434 kts | 313° |
| 2026-04-13 19:25 | 33.22861 | 28.92188 | 38173 ft | 433 kts | 313° |
| 2026-04-13 19:26 | 33.27228 | 28.87223 | 38173 ft | 433 kts | 313° |
| 2026-04-13 19:26 | 33.31567 | 28.82285 | 38179 ft | 433 kts | 313° |
| 2026-04-13 19:27 | 33.35942 | 28.77299 | 38177 ft | 434 kts | 313° |
| 2026-04-13 19:27 | 33.40322 | 28.72298 | 38180 ft | 435 kts | 313° |
| 2026-04-13 19:28 | 33.44700 | 28.67294 | 38178 ft | 435 kts | 313° |
| 2026-04-13 19:28 | 33.49067 | 28.62295 | 38164 ft | 433 kts | 313° |
| 2026-04-13 19:29 | 33.53417 | 28.57306 | 38163 ft | 432 kts | 313° |
| 2026-04-13 19:29 | 33.57729 | 28.52356 | 38158 ft | 432 kts | 313° |
| 2026-04-13 19:30 | 33.62067 | 28.47368 | 38161 ft | 431 kts | 313° |
| 2026-04-13 19:30 | 33.66391 | 28.42388 | 38160 ft | 431 kts | 313° |
| 2026-04-13 19:31 | 33.70718 | 28.37398 | 38158 ft | 431 kts | 313° |
| 2026-04-13 19:31 | 33.75046 | 28.32399 | 38167 ft | 431 kts | 313° |
| 2026-04-13 19:32 | 33.79387 | 28.27480 | 38149 ft | 433 kts | 317° |
| 2026-04-13 19:32 | 33.84552 | 28.23602 | 38169 ft | 440 kts | 326° |
| 2026-04-13 19:33 | 33.89861 | 28.20015 | 38176 ft | 441 kts | 326° |
| 2026-04-13 19:34 | 33.97898 | 28.14584 | 38173 ft | 441 kts | 326° |
| 2026-04-13 19:34 | 34.03236 | 28.10963 | 38172 ft | 439 kts | 326° |
| 2026-04-13 19:35 | 34.08562 | 28.07351 | 38174 ft | 439 kts | 326° |
| 2026-04-13 19:35 | 34.13880 | 28.03737 | 38165 ft | 438 kts | 326° |
| 2026-04-13 19:36 | 34.19193 | 28.00122 | 38161 ft | 438 kts | 326° |
| 2026-04-13 19:36 | 34.24496 | 27.96508 | 38161 ft | 437 kts | 326° |
| 2026-04-13 19:37 | 34.29777 | 27.92904 | 38169 ft | 439 kts | 326° |
| 2026-04-13 19:37 | 34.35110 | 27.89260 | 38175 ft | 441 kts | 326° |
| 2026-04-13 19:38 | 34.40453 | 27.85604 | 38162 ft | 440 kts | 326° |
| 2026-04-13 19:38 | 34.45767 | 27.81961 | 38160 ft | 439 kts | 326° |
| 2026-04-13 19:39 | 34.51078 | 27.78315 | 38155 ft | 438 kts | 326° |
| 2026-04-13 19:39 | 34.56374 | 27.74671 | 38153 ft | 437 kts | 325° |
| 2026-04-13 19:40 | 34.61621 | 27.71039 | 38157 ft | 437 kts | 325° |
| 2026-04-13 19:40 | 34.66925 | 27.67371 | 38166 ft | 439 kts | 326° |
| 2026-04-13 19:41 | 34.72235 | 27.63691 | 38169 ft | 440 kts | 325° |
| 2026-04-13 19:41 | 34.77547 | 27.60003 | 38171 ft | 440 kts | 325° |
| 2026-04-13 19:42 | 34.85520 | 27.54459 | 38163 ft | 439 kts | 325° |
| 2026-04-13 19:42 | 34.90824 | 27.50764 | 38186 ft | 439 kts | 325° |
| 2026-04-13 19:43 | 34.96126 | 27.47064 | 38168 ft | 439 kts | 325° |
| 2026-04-13 19:43 | 35.01422 | 27.43364 | 38170 ft | 438 kts | 325° |
| 2026-04-13 19:44 | 35.06699 | 27.39670 | 38168 ft | 437 kts | 325° |
| 2026-04-13 19:44 | 35.11959 | 27.35984 | 38165 ft | 436 kts | 325° |
| 2026-04-13 19:45 | 35.17232 | 27.32282 | 38172 ft | 438 kts | 325° |
| 2026-04-13 19:45 | 35.22494 | 27.28583 | 38175 ft | 439 kts | 325° |
| 2026-04-13 19:46 | 35.27785 | 27.24858 | 38178 ft | 439 kts | 325° |
| 2026-04-13 19:46 | 35.33076 | 27.21127 | 38181 ft | 438 kts | 325° |
| 2026-04-13 19:47 | 35.38355 | 27.17398 | 38192 ft | 438 kts | 325° |
| 2026-04-13 19:47 | 35.43596 | 27.13598 | 38192 ft | 435 kts | 322° |
| 2026-04-13 19:48 | 35.48697 | 27.09575 | 38188 ft | 435 kts | 322° |
| 2026-04-13 19:48 | 35.53794 | 27.05582 | 38182 ft | 434 kts | 322° |
| 2026-04-13 19:49 | 35.58872 | 27.01580 | 38177 ft | 434 kts | 322° |
| 2026-04-13 19:49 | 35.63968 | 26.97566 | 38174 ft | 436 kts | 322° |
| 2026-04-13 19:50 | 35.69081 | 26.93530 | 38174 ft | 437 kts | 322° |
| 2026-04-13 19:50 | 35.74196 | 26.89486 | 38168 ft | 438 kts | 322° |
| 2026-04-13 19:51 | 35.79312 | 26.85437 | 38156 ft | 436 kts | 322° |
| 2026-04-13 19:51 | 35.84406 | 26.81396 | 38156 ft | 436 kts | 322° |
| 2026-04-13 19:52 | 35.89474 | 26.77372 | 38154 ft | 435 kts | 322° |
| 2026-04-13 19:52 | 35.94564 | 26.73313 | 38152 ft | 435 kts | 322° |
| 2026-04-13 19:53 | 35.99647 | 26.69238 | 38151 ft | 435 kts | 322° |
| 2026-04-13 19:53 | 36.04737 | 26.65161 | 38170 ft | 436 kts | 322° |
| 2026-04-13 19:54 | 36.09825 | 26.61075 | 38166 ft | 436 kts | 322° |
| 2026-04-13 19:54 | 36.14054 | 26.57676 | 38167 ft | 436 kts | 322° |
| 2026-04-13 19:55 | 36.19961 | 26.52919 | 38162 ft | 436 kts | 322° |
| 2026-04-13 19:55 | 36.25054 | 26.48811 | 38150 ft | 437 kts | 322° |
| 2026-04-13 19:56 | 36.29284 | 26.45394 | 38154 ft | 437 kts | 322° |
| 2026-04-13 19:56 | 36.34373 | 26.41277 | 38161 ft | 437 kts | 321° |
| 2026-04-13 19:57 | 36.39463 | 26.37154 | 38165 ft | 437 kts | 321° |
| 2026-04-13 19:57 | 36.44552 | 26.33023 | 38164 ft | 437 kts | 321° |
| 2026-04-13 19:58 | 36.49642 | 26.28886 | 38168 ft | 437 kts | 321° |
| 2026-04-13 19:58 | 36.54734 | 26.24741 | 38160 ft | 438 kts | 321° |
| 2026-04-13 19:59 | 36.59330 | 26.19901 | 38162 ft | 431 kts | 311° |
| 2026-04-13 19:59 | 36.63635 | 26.14684 | 38164 ft | 432 kts | 311° |
| 2026-04-13 20:00 | 36.67944 | 26.09472 | 38164 ft | 431 kts | 311° |
| 2026-04-13 20:00 | 36.72233 | 26.04264 | 38163 ft | 430 kts | 311° |
| 2026-04-13 20:01 | 36.76487 | 25.99095 | 38159 ft | 430 kts | 311° |
| 2026-04-13 20:01 | 36.80778 | 25.93870 | 38158 ft | 432 kts | 311° |
| 2026-04-13 20:02 | 36.85089 | 25.88614 | 38157 ft | 433 kts | 311° |
| 2026-04-13 20:02 | 36.89404 | 25.83343 | 38158 ft | 434 kts | 311° |
| 2026-04-13 20:03 | 36.93728 | 25.78054 | 38163 ft | 435 kts | 311° |
| 2026-04-13 20:03 | 36.98035 | 25.72776 | 38161 ft | 433 kts | 311° |
| 2026-04-13 20:04 | 37.02331 | 25.67502 | 38156 ft | 432 kts | 311° |
| 2026-04-13 20:04 | 37.06589 | 25.62266 | 38160 ft | 433 kts | 311° |
| 2026-04-13 20:05 | 37.10902 | 25.56952 | 38158 ft | 436 kts | 311° |
| 2026-04-13 20:05 | 37.15219 | 25.51629 | 38163 ft | 435 kts | 311° |
| 2026-04-13 20:06 | 37.19539 | 25.46288 | 38160 ft | 436 kts | 311° |
| 2026-04-13 20:06 | 37.23854 | 25.40932 | 38164 ft | 436 kts | 310° |
| 2026-04-13 20:07 | 37.28266 | 25.35687 | 38152 ft | 441 kts | 317° |
| 2026-04-13 20:07 | 37.33285 | 25.31229 | 38168 ft | 443 kts | 319° |
| 2026-04-13 20:08 | 37.38340 | 25.26733 | 38177 ft | 445 kts | 319° |
| 2026-04-13 20:08 | 37.43392 | 25.22240 | 38175 ft | 444 kts | 319° |
| 2026-04-13 20:09 | 37.48352 | 25.17819 | 38168 ft | 446 kts | 319° |
| 2026-04-13 20:09 | 37.53425 | 25.13292 | 38175 ft | 446 kts | 319° |
| 2026-04-13 20:10 | 37.58495 | 25.08758 | 38173 ft | 447 kts | 319° |
| 2026-04-13 20:10 | 37.63566 | 25.04216 | 38171 ft | 447 kts | 319° |
| 2026-04-13 20:11 | 37.68639 | 24.99665 | 38170 ft | 448 kts | 319° |
| 2026-04-13 20:11 | 37.73725 | 24.95092 | 38176 ft | 450 kts | 320° |
| 2026-04-13 20:12 | 37.78833 | 24.90495 | 38166 ft | 451 kts | 320° |
| 2026-04-13 20:12 | 37.83940 | 24.85888 | 38168 ft | 450 kts | 320° |
| 2026-04-13 20:13 | 37.89038 | 24.81283 | 38161 ft | 450 kts | 320° |
| 2026-04-13 20:13 | 37.94100 | 24.76702 | 38171 ft | 450 kts | 320° |
| 2026-04-13 20:14 | 37.99195 | 24.72082 | 38166 ft | 451 kts | 319° |
| 2026-04-13 20:14 | 38.04309 | 24.67439 | 38171 ft | 452 kts | 319° |
| 2026-04-13 20:15 | 38.09423 | 24.62786 | 38175 ft | 452 kts | 319° |
| 2026-04-13 20:15 | 38.14524 | 24.58137 | 38163 ft | 450 kts | 320° |
| 2026-04-13 20:16 | 38.19607 | 24.53491 | 38171 ft | 451 kts | 319° |
| 2026-04-13 20:16 | 38.24695 | 24.48814 | 38175 ft | 452 kts | 319° |
| 2026-04-13 20:17 | 38.29805 | 24.44120 | 38173 ft | 453 kts | 320° |
| 2026-04-13 20:17 | 38.34900 | 24.39426 | 38171 ft | 451 kts | 319° |
| 2026-04-13 20:18 | 38.39991 | 24.34727 | 38174 ft | 453 kts | 319° |
| 2026-04-13 20:18 | 38.45110 | 24.29996 | 38175 ft | 454 kts | 319° |
| 2026-04-13 20:19 | 38.50191 | 24.25288 | 38179 ft | 454 kts | 319° |
| 2026-04-13 20:19 | 38.55310 | 24.20538 | 38174 ft | 455 kts | 320° |
| 2026-04-13 20:20 | 38.60417 | 24.15791 | 38170 ft | 453 kts | 319° |
| 2026-04-13 20:20 | 38.65518 | 24.11039 | 38170 ft | 453 kts | 319° |
| 2026-04-13 20:21 | 38.70607 | 24.06291 | 38171 ft | 453 kts | 319° |
| 2026-04-13 20:21 | 38.75723 | 24.01507 | 38174 ft | 456 kts | 319° |
| 2026-04-13 20:22 | 38.80850 | 23.96710 | 38188 ft | 456 kts | 319° |
| 2026-04-13 20:22 | 38.85971 | 23.91903 | 38167 ft | 455 kts | 319° |
| 2026-04-13 20:23 | 38.91075 | 23.87108 | 38165 ft | 454 kts | 319° |
| 2026-04-13 20:23 | 38.96130 | 23.82347 | 38165 ft | 453 kts | 319° |
| 2026-04-13 20:24 | 39.01222 | 23.77543 | 38163 ft | 455 kts | 319° |
| 2026-04-13 20:24 | 39.06345 | 23.72702 | 38175 ft | 458 kts | 319° |
| 2026-04-13 20:25 | 39.11498 | 23.67825 | 38172 ft | 459 kts | 319° |
| 2026-04-13 20:25 | 39.16638 | 23.62950 | 38171 ft | 459 kts | 319° |
| 2026-04-13 20:26 | 39.21286 | 23.57444 | 38165 ft | 453 kts | 311° |
| 2026-04-13 20:26 | 39.25758 | 23.51712 | 38161 ft | 453 kts | 311° |
| 2026-04-13 20:27 | 39.30212 | 23.45965 | 38174 ft | 452 kts | 311° |
| 2026-04-13 20:27 | 39.34665 | 23.40217 | 38197 ft | 454 kts | 311° |
| 2026-04-13 20:28 | 39.39127 | 23.34445 | 38190 ft | 457 kts | 311° |
| 2026-04-13 20:28 | 39.43612 | 23.28633 | 38169 ft | 456 kts | 311° |
| 2026-04-13 20:29 | 39.48095 | 23.22810 | 38165 ft | 455 kts | 311° |
| 2026-04-13 20:29 | 39.52563 | 23.16997 | 38166 ft | 455 kts | 311° |
| 2026-04-13 20:30 | 39.57024 | 23.11183 | 38169 ft | 455 kts | 310° |
| 2026-04-13 20:30 | 39.61504 | 23.05330 | 38170 ft | 459 kts | 310° |
| 2026-04-13 20:31 | 39.66003 | 22.99444 | 38180 ft | 459 kts | 310° |
| 2026-04-13 20:31 | 39.70499 | 22.93547 | 38179 ft | 460 kts | 310° |
| 2026-04-13 20:32 | 39.74968 | 22.87676 | 38182 ft | 460 kts | 310° |
| 2026-04-13 20:32 | 39.79468 | 22.81752 | 38182 ft | 460 kts | 310° |
| 2026-04-13 20:33 | 39.83956 | 22.75832 | 38179 ft | 459 kts | 310° |
| 2026-04-13 20:33 | 39.88460 | 22.69878 | 38182 ft | 461 kts | 310° |
| 2026-04-13 20:34 | 39.92965 | 22.63915 | 38179 ft | 462 kts | 310° |
| 2026-04-13 20:34 | 39.97474 | 22.57930 | 38177 ft | 462 kts | 310° |
| 2026-04-13 20:35 | 40.01940 | 22.51992 | 38178 ft | 461 kts | 310° |
| 2026-04-13 20:35 | 40.06433 | 22.46005 | 38184 ft | 462 kts | 310° |
| 2026-04-13 20:36 | 40.10936 | 22.39994 | 38182 ft | 463 kts | 310° |
| 2026-04-13 20:36 | 40.15445 | 22.33963 | 38181 ft | 464 kts | 310° |
| 2026-04-13 20:37 | 40.19954 | 22.27920 | 38183 ft | 464 kts | 310° |
| 2026-04-13 20:37 | 40.24464 | 22.21861 | 38175 ft | 465 kts | 310° |
| 2026-04-13 20:38 | 40.28970 | 22.15799 | 38170 ft | 464 kts | 310° |
| 2026-04-13 20:38 | 40.33477 | 22.09719 | 38166 ft | 466 kts | 310° |
| 2026-04-13 20:39 | 40.37968 | 22.03653 | 38164 ft | 466 kts | 310° |
| 2026-04-13 20:39 | 40.42480 | 21.97544 | 38163 ft | 465 kts | 310° |
| 2026-04-13 20:40 | 40.46978 | 21.91440 | 38160 ft | 464 kts | 310° |
| 2026-04-13 20:40 | 40.51466 | 21.85338 | 38168 ft | 464 kts | 310° |
| 2026-04-13 20:41 | 40.55947 | 21.79233 | 38174 ft | 464 kts | 310° |
| 2026-04-13 20:41 | 40.59684 | 21.74132 | 38160 ft | 466 kts | 310° |
| 2026-04-13 20:42 | 40.64181 | 21.67983 | 38161 ft | 466 kts | 310° |
| 2026-04-13 20:42 | 40.68674 | 21.61825 | 38161 ft | 466 kts | 310° |
| 2026-04-13 20:43 | 40.73161 | 21.55663 | 38161 ft | 466 kts | 310° |
| 2026-04-13 20:43 | 40.77618 | 21.49530 | 38148 ft | 466 kts | 310° |
| 2026-04-13 20:44 | 40.82112 | 21.43332 | 38150 ft | 467 kts | 309° |
| 2026-04-13 20:44 | 40.86605 | 21.37125 | 38139 ft | 468 kts | 310° |
| 2026-04-13 20:45 | 40.91652 | 21.31631 | 38131 ft | 472 kts | 318° |
| 2026-04-13 20:46 | 40.99428 | 21.23631 | 38127 ft | 471 kts | 318° |
| 2026-04-13 20:46 | 41.04615 | 21.18307 | 38112 ft | 472 kts | 318° |
| 2026-04-13 20:47 | 41.09813 | 21.12943 | 38105 ft | 473 kts | 318° |
| 2026-04-13 20:47 | 41.14992 | 21.07598 | 38100 ft | 475 kts | 318° |
| 2026-04-13 20:48 | 41.20194 | 21.02213 | 38093 ft | 474 kts | 317° |
| 2026-04-13 20:48 | 41.25393 | 20.96823 | 38091 ft | 473 kts | 317° |
| 2026-04-13 20:49 | 41.30574 | 20.91438 | 38088 ft | 474 kts | 317° |
| 2026-04-13 20:49 | 41.35787 | 20.86009 | 38085 ft | 476 kts | 317° |
| 2026-04-13 20:50 | 41.40999 | 20.80571 | 38090 ft | 476 kts | 317° |
| 2026-04-13 20:50 | 41.46230 | 20.75099 | 38090 ft | 479 kts | 318° |
| 2026-04-13 20:51 | 41.51468 | 20.69613 | 38077 ft | 478 kts | 317° |
| 2026-04-13 20:51 | 41.56700 | 20.64115 | 38073 ft | 479 kts | 318° |
| 2026-04-13 20:52 | 41.61923 | 20.58622 | 38054 ft | 478 kts | 318° |
| 2026-04-13 20:52 | 41.67146 | 20.53112 | 38049 ft | 478 kts | 318° |
| 2026-04-13 20:53 | 41.72330 | 20.47633 | 38050 ft | 478 kts | 317° |
| 2026-04-13 20:53 | 41.77568 | 20.42085 | 38033 ft | 482 kts | 318° |
| 2026-04-13 20:54 | 41.82832 | 20.36498 | 38032 ft | 481 kts | 318° |
| 2026-04-13 20:54 | 41.87973 | 20.31032 | 38001 ft | 475 kts | 318° |
| 2026-04-13 20:55 | 41.93132 | 20.25530 | 38003 ft | 474 kts | 318° |
| 2026-04-13 20:55 | 41.98294 | 20.20019 | 37994 ft | 474 kts | 317° |
| 2026-04-13 20:56 | 42.03459 | 20.14490 | 38009 ft | 474 kts | 317° |
| 2026-04-13 20:56 | 42.08648 | 20.08920 | 38005 ft | 478 kts | 317° |
| 2026-04-13 20:57 | 42.13852 | 20.03328 | 38003 ft | 478 kts | 317° |
| 2026-04-13 20:57 | 42.19011 | 19.97768 | 38004 ft | 478 kts | 317° |
| 2026-04-13 20:58 | 42.24237 | 19.92126 | 38004 ft | 478 kts | 317° |
| 2026-04-13 20:58 | 42.29432 | 19.86505 | 37994 ft | 478 kts | 317° |
| 2026-04-13 20:59 | 42.34580 | 19.80922 | 38005 ft | 477 kts | 317° |
| 2026-04-13 20:59 | 42.39758 | 19.75294 | 37996 ft | 478 kts | 317° |
| 2026-04-13 21:00 | 42.44933 | 19.69659 | 37997 ft | 477 kts | 317° |
| 2026-04-13 21:00 | 42.50094 | 19.64024 | 37988 ft | 476 kts | 317° |
| 2026-04-13 21:01 | 42.55267 | 19.58366 | 38000 ft | 478 kts | 317° |
| 2026-04-13 21:01 | 42.60457 | 19.52692 | 37992 ft | 478 kts | 317° |
| 2026-04-13 21:02 | 42.65634 | 19.47013 | 37996 ft | 479 kts | 317° |
| 2026-04-13 21:02 | 42.70690 | 19.41457 | 37996 ft | 479 kts | 317° |
| 2026-04-13 21:03 | 42.75892 | 19.35730 | 38007 ft | 478 kts | 317° |
| 2026-04-13 21:03 | 42.81036 | 19.30050 | 37983 ft | 479 kts | 316° |
| 2026-04-13 21:04 | 42.86205 | 19.24334 | 37978 ft | 478 kts | 316° |
| 2026-04-13 21:04 | 42.91374 | 19.18601 | 37974 ft | 479 kts | 316° |
| 2026-04-13 21:05 | 42.96548 | 19.12852 | 37975 ft | 480 kts | 316° |
| 2026-04-13 21:05 | 43.01714 | 19.07099 | 37977 ft | 479 kts | 316° |
| 2026-04-13 21:06 | 43.06880 | 19.01332 | 37976 ft | 479 kts | 316° |
| 2026-04-13 21:06 | 43.12045 | 18.95555 | 37972 ft | 479 kts | 316° |
| 2026-04-13 21:07 | 43.17141 | 18.89841 | 37976 ft | 479 kts | 316° |
| 2026-04-13 21:07 | 43.22290 | 18.84055 | 37967 ft | 478 kts | 316° |
| 2026-04-13 21:08 | 43.27389 | 18.78312 | 37968 ft | 477 kts | 316° |
| 2026-04-13 21:08 | 43.32534 | 18.72503 | 37963 ft | 480 kts | 316° |
| 2026-04-13 21:09 | 43.37697 | 18.66663 | 37966 ft | 480 kts | 316° |
| 2026-04-13 21:09 | 43.42851 | 18.60818 | 37968 ft | 480 kts | 316° |
| 2026-04-13 21:10 | 43.48005 | 18.54961 | 37956 ft | 480 kts | 316° |
| 2026-04-13 21:10 | 43.53133 | 18.49121 | 37965 ft | 478 kts | 316° |
| 2026-04-13 21:11 | 43.58260 | 18.43265 | 37956 ft | 479 kts | 316° |
| 2026-04-13 21:11 | 43.63394 | 18.37392 | 37950 ft | 480 kts | 316° |
| 2026-04-13 21:12 | 43.68532 | 18.31498 | 37954 ft | 480 kts | 316° |
| 2026-04-13 21:12 | 43.73661 | 18.25602 | 37944 ft | 477 kts | 316° |
| 2026-04-13 21:13 | 43.78711 | 18.19786 | 37948 ft | 476 kts | 316° |
| 2026-04-13 21:13 | 43.83790 | 18.13916 | 37940 ft | 476 kts | 316° |
| 2026-04-13 21:14 | 43.88797 | 18.07933 | 37938 ft | 475 kts | 313° |
| 2026-04-13 21:14 | 43.93741 | 18.01839 | 37939 ft | 475 kts | 314° |
| 2026-04-13 21:15 | 43.98651 | 17.95732 | 37930 ft | 473 kts | 314° |
| 2026-04-13 21:15 | 44.03537 | 17.89646 | 37933 ft | 472 kts | 315° |
| 2026-04-13 21:16 | 44.08419 | 17.83559 | 37922 ft | 471 kts | 314° |
| 2026-04-13 21:16 | 44.13308 | 17.77437 | 37917 ft | 473 kts | 315° |
| 2026-04-13 21:17 | 44.18169 | 17.71350 | 37922 ft | 473 kts | 315° |
| 2026-04-13 21:17 | 44.23100 | 17.65144 | 37911 ft | 481 kts | 314° |
| 2026-04-13 21:18 | 44.28067 | 17.58898 | 37902 ft | 479 kts | 314° |
| 2026-04-13 21:18 | 44.32998 | 17.52666 | 37899 ft | 478 kts | 314° |
| 2026-04-13 21:19 | 44.37926 | 17.46431 | 37900 ft | 478 kts | 314° |
| 2026-04-13 21:19 | 44.42826 | 17.40216 | 37908 ft | 478 kts | 314° |
| 2026-04-13 21:20 | 44.47766 | 17.33933 | 37905 ft | 480 kts | 314° |
| 2026-04-13 21:20 | 44.52701 | 17.27644 | 37908 ft | 480 kts | 314° |
| 2026-04-13 21:21 | 44.57636 | 17.21337 | 37910 ft | 480 kts | 314° |
| 2026-04-13 21:21 | 44.62599 | 17.14981 | 37912 ft | 483 kts | 314° |
| 2026-04-13 21:22 | 44.67556 | 17.08619 | 37913 ft | 481 kts | 314° |
| 2026-04-13 21:22 | 44.72497 | 17.02258 | 37909 ft | 482 kts | 314° |
| 2026-04-13 21:23 | 44.77412 | 16.95919 | 37914 ft | 482 kts | 314° |
| 2026-04-13 21:23 | 44.82360 | 16.89519 | 37907 ft | 484 kts | 314° |
| 2026-04-13 21:24 | 44.87318 | 16.83093 | 37910 ft | 484 kts | 314° |
| 2026-04-13 21:24 | 44.92267 | 16.76660 | 37908 ft | 484 kts | 314° |
| 2026-04-13 21:25 | 44.97210 | 16.70222 | 37896 ft | 483 kts | 314° |
| 2026-04-13 21:25 | 45.02140 | 16.63782 | 37903 ft | 483 kts | 314° |
| 2026-04-13 21:26 | 45.07058 | 16.57344 | 37905 ft | 485 kts | 314° |
| 2026-04-13 21:26 | 45.11203 | 16.51907 | 37905 ft | 485 kts | 314° |
| 2026-04-13 21:27 | 45.16948 | 16.44365 | 37904 ft | 484 kts | 314° |
| 2026-04-13 21:27 | 45.21936 | 16.37967 | 37909 ft | 482 kts | 315° |
| 2026-04-13 21:28 | 45.26053 | 16.32603 | 37897 ft | 483 kts | 314° |
| 2026-04-13 21:28 | 45.31018 | 16.26151 | 37899 ft | 484 kts | 315° |
| 2026-04-13 21:29 | 45.35989 | 16.19676 | 37909 ft | 485 kts | 314° |
| 2026-04-13 21:29 | 45.40953 | 16.13187 | 37904 ft | 484 kts | 315° |
| 2026-04-13 21:30 | 45.45901 | 16.06709 | 37907 ft | 484 kts | 315° |
| 2026-04-13 21:30 | 45.50864 | 16.00190 | 37912 ft | 486 kts | 315° |
| 2026-04-13 21:31 | 45.55843 | 15.93637 | 37921 ft | 490 kts | 315° |
| 2026-04-13 21:31 | 45.60914 | 15.86942 | 37918 ft | 503 kts | 315° |
| 2026-04-13 21:32 | 45.66112 | 15.80068 | 37923 ft | 515 kts | 315° |
| 2026-04-13 21:32 | 45.71400 | 15.73051 | 37935 ft | 519 kts | 315° |
| 2026-04-13 21:33 | 45.76688 | 15.66018 | 37944 ft | 519 kts | 315° |
| 2026-04-13 21:33 | 45.81975 | 15.58964 | 37947 ft | 519 kts | 315° |
| 2026-04-13 21:34 | 45.89888 | 15.48375 | 37947 ft | 518 kts | 314° |
| 2026-04-13 21:34 | 45.95120 | 15.41348 | 37939 ft | 517 kts | 315° |
| 2026-04-13 21:35 | 46.00398 | 15.34240 | 37941 ft | 516 kts | 314° |
| 2026-04-13 21:36 | 46.08222 | 15.23667 | 37954 ft | 517 kts | 314° |
| 2026-04-13 21:36 | 46.13470 | 15.16551 | 37953 ft | 520 kts | 314° |
| 2026-04-13 21:37 | 46.18729 | 15.09402 | 37959 ft | 519 kts | 315° |
| 2026-04-13 21:37 | 46.23978 | 15.02244 | 37964 ft | 518 kts | 315° |
| 2026-04-13 21:38 | 46.29226 | 14.95070 | 37983 ft | 519 kts | 314° |
| 2026-04-13 21:38 | 46.34511 | 14.87821 | 37980 ft | 527 kts | 314° |
| 2026-04-13 21:39 | 46.39828 | 14.80518 | 37981 ft | 524 kts | 314° |
| 2026-04-13 21:39 | 46.45073 | 14.73281 | 37981 ft | 523 kts | 315° |
| 2026-04-13 21:40 | 46.50318 | 14.66034 | 37979 ft | 520 kts | 315° |
| 2026-04-13 21:40 | 46.55557 | 14.58766 | 37979 ft | 521 kts | 315° |
| 2026-04-13 21:41 | 46.60799 | 14.51482 | 37974 ft | 521 kts | 314° |
| 2026-04-13 21:41 | 46.66033 | 14.44182 | 37973 ft | 521 kts | 314° |
| 2026-04-13 21:42 | 46.71281 | 14.36846 | 37972 ft | 524 kts | 314° |
| 2026-04-13 21:42 | 46.76580 | 14.29522 | 37973 ft | 526 kts | 315° |
| 2026-04-13 21:43 | 46.81946 | 14.22256 | 37976 ft | 525 kts | 315° |
| 2026-04-13 21:43 | 46.87253 | 14.14915 | 37978 ft | 524 kts | 315° |
| 2026-04-13 21:44 | 46.92533 | 14.07684 | 37984 ft | 524 kts | 315° |
| 2026-04-13 21:44 | 46.97836 | 14.00339 | 37993 ft | 527 kts | 315° |
| 2026-04-13 21:45 | 47.03181 | 13.92952 | 37996 ft | 528 kts | 315° |
| 2026-04-13 21:45 | 47.08516 | 13.85539 | 37989 ft | 528 kts | 315° |
| 2026-04-13 21:46 | 47.13833 | 13.78137 | 37978 ft | 526 kts | 315° |
| 2026-04-13 21:46 | 47.19144 | 13.70721 | 37969 ft | 528 kts | 314° |
| 2026-04-13 21:47 | 47.24438 | 13.63305 | 37958 ft | 522 kts | 315° |
| 2026-04-13 21:47 | 47.29703 | 13.55910 | 37958 ft | 523 kts | 315° |
| 2026-04-13 21:48 | 47.34968 | 13.48492 | 37939 ft | 523 kts | 315° |
| 2026-04-13 21:48 | 47.40199 | 13.41102 | 37944 ft | 525 kts | 315° |
| 2026-04-13 21:49 | 47.45450 | 13.33661 | 37926 ft | 521 kts | 315° |
| 2026-04-13 21:49 | 47.50679 | 13.26231 | 37922 ft | 520 kts | 315° |
| 2026-04-13 21:50 | 47.55901 | 13.18787 | 37923 ft | 521 kts | 315° |
| 2026-04-13 21:50 | 47.61128 | 13.11316 | 37917 ft | 522 kts | 314° |
| 2026-04-13 21:51 | 47.66359 | 13.03817 | 37924 ft | 523 kts | 315° |
| 2026-04-13 21:51 | 47.71577 | 12.96316 | 37918 ft | 521 kts | 315° |
| 2026-04-13 21:52 | 47.76744 | 12.88865 | 37917 ft | 520 kts | 315° |
| 2026-04-13 21:52 | 47.81932 | 12.81361 | 37933 ft | 520 kts | 315° |
| 2026-04-13 21:53 | 47.87078 | 12.73896 | 37937 ft | 522 kts | 315° |
| 2026-04-13 21:53 | 47.92324 | 12.66266 | 37941 ft | 523 kts | 314° |
| 2026-04-13 21:54 | 47.97522 | 12.58681 | 37936 ft | 523 kts | 314° |
| 2026-04-13 21:54 | 48.02720 | 12.51030 | 37940 ft | 525 kts | 314° |
| 2026-04-13 21:55 | 48.07909 | 12.43363 | 37936 ft | 524 kts | 314° |
| 2026-04-13 21:55 | 48.13095 | 12.35690 | 37935 ft | 523 kts | 314° |
| 2026-04-13 21:56 | 48.18254 | 12.28020 | 37932 ft | 523 kts | 314° |
| 2026-04-13 21:56 | 48.23413 | 12.20338 | 37930 ft | 522 kts | 314° |
| 2026-04-13 21:57 | 48.28526 | 12.12693 | 37931 ft | 522 kts | 314° |
| 2026-04-13 21:57 | 48.33670 | 12.04984 | 37928 ft | 522 kts | 314° |
| 2026-04-13 21:58 | 48.38817 | 11.97244 | 37934 ft | 523 kts | 314° |
| 2026-04-13 21:58 | 48.43966 | 11.89480 | 37936 ft | 525 kts | 314° |
| 2026-04-13 21:59 | 48.49123 | 11.81680 | 37929 ft | 527 kts | 313° |
| 2026-04-13 21:59 | 48.54294 | 11.73835 | 37925 ft | 526 kts | 313° |
| 2026-04-13 22:00 | 48.59451 | 11.65986 | 37918 ft | 526 kts | 313° |
| 2026-04-13 22:00 | 48.64575 | 11.58163 | 37921 ft | 527 kts | 313° |
| 2026-04-13 22:01 | 48.69734 | 11.50263 | 37919 ft | 527 kts | 313° |
| 2026-04-13 22:01 | 48.74877 | 11.42363 | 37915 ft | 525 kts | 313° |
| 2026-04-13 22:02 | 48.79988 | 11.34488 | 37927 ft | 524 kts | 313° |
| 2026-04-13 22:02 | 48.85098 | 11.26589 | 37933 ft | 525 kts | 313° |
| 2026-04-13 22:03 | 48.90219 | 11.18650 | 37956 ft | 526 kts | 313° |
| 2026-04-13 22:03 | 48.95310 | 11.10733 | 37972 ft | 526 kts | 313° |
| 2026-04-13 22:04 | 49.00415 | 11.02770 | 37976 ft | 526 kts | 313° |
| 2026-04-13 22:04 | 49.05564 | 10.94708 | 38000 ft | 533 kts | 313° |
| 2026-04-13 22:05 | 49.10728 | 10.86605 | 37994 ft | 530 kts | 313° |
| 2026-04-13 22:05 | 49.13263 | 10.82616 | 37984 ft | 517 kts | 313° |
| 2026-04-13 22:05 | 49.15740 | 10.78712 | 37970 ft | 507 kts | 313° |
| 2026-04-13 22:05 | 49.18181 | 10.74858 | 37750 ft | 501 kts | 312° |
| 2026-04-13 22:06 | 49.20590 | 10.71049 | 37400 ft | 498 kts | 312° |
| 2026-04-13 22:06 | 49.23008 | 10.67245 | 36965 ft | 497 kts | 312° |
| 2026-04-13 22:06 | 49.25421 | 10.63464 | 36623 ft | 495 kts | 312° |
| 2026-04-13 22:06 | 49.27816 | 10.59694 | 36241 ft | 493 kts | 312° |
| 2026-04-13 22:07 | 49.30194 | 10.55930 | 35819 ft | 492 kts | 312° |
| 2026-04-13 22:07 | 49.32545 | 10.52204 | 35376 ft | 492 kts | 312° |
| 2026-04-13 22:07 | 49.34946 | 10.48408 | 34944 ft | 488 kts | 312° |
| 2026-04-13 22:07 | 49.37082 | 10.44526 | 34394 ft | 476 kts | 303° |
| 2026-04-13 22:08 | 49.38976 | 10.40377 | 33748 ft | 478 kts | 302° |
| 2026-04-13 22:08 | 49.40887 | 10.36051 | 32954 ft | 486 kts | 302° |
| 2026-04-13 22:08 | 49.42798 | 10.31831 | 32151 ft | 488 kts | 303° |
| 2026-04-13 22:08 | 49.44768 | 10.27585 | 31339 ft | 488 kts | 303° |
| 2026-04-13 22:09 | 49.46725 | 10.23319 | 30461 ft | 487 kts | 303° |
| 2026-04-13 22:09 | 49.48652 | 10.19030 | 29504 ft | 488 kts | 302° |
| 2026-04-13 22:09 | 49.50583 | 10.14735 | 28481 ft | 489 kts | 303° |
| 2026-04-13 22:09 | 49.52529 | 10.10448 | 27522 ft | 489 kts | 303° |
| 2026-04-13 22:10 | 49.54471 | 10.06175 | 26582 ft | 485 kts | 302° |
| 2026-04-13 22:10 | 49.56390 | 10.01916 | 25647 ft | 482 kts | 302° |
| 2026-04-13 22:10 | 49.58287 | 9.97684 | 24750 ft | 479 kts | 302° |
| 2026-04-13 22:10 | 49.60178 | 9.93475 | 23852 ft | 476 kts | 302° |
| 2026-04-13 22:11 | 49.62058 | 9.89296 | 22864 ft | 472 kts | 302° |
| 2026-04-13 22:11 | 49.63920 | 9.85143 | 21923 ft | 466 kts | 302° |
| 2026-04-13 22:11 | 49.65747 | 9.81052 | 21014 ft | 460 kts | 302° |
| 2026-04-13 22:11 | 49.67549 | 9.77014 | 20152 ft | 453 kts | 302° |
| 2026-04-13 22:12 | 49.69323 | 9.73039 | 19304 ft | 446 kts | 302° |
| 2026-04-13 22:12 | 49.71049 | 9.69165 | 18486 ft | 440 kts | 302° |
| 2026-04-13 22:12 | 49.72769 | 9.65295 | 17598 ft | 433 kts | 302° |
| 2026-04-13 22:12 | 49.74459 | 9.61487 | 16751 ft | 425 kts | 302° |
| 2026-04-13 22:13 | 49.76114 | 9.57756 | 15959 ft | 417 kts | 302° |
| 2026-04-13 22:13 | 49.77737 | 9.54092 | 15184 ft | 409 kts | 302° |
| 2026-04-13 22:13 | 49.79331 | 9.50486 | 14438 ft | 402 kts | 302° |
| 2026-04-13 22:13 | 49.80884 | 9.46970 | 13592 ft | 382 kts | 302° |
| 2026-04-13 22:14 | 49.81854 | 9.44778 | 13210 ft | 368 kts | 302° |
| 2026-04-13 22:14 | 49.83315 | 9.41454 | 12792 ft | 366 kts | 302° |
| 2026-04-13 22:14 | 49.84706 | 9.38296 | 12006 ft | 341 kts | 302° |
| 2026-04-13 22:14 | 49.85987 | 9.35391 | 11208 ft | 313 kts | 301° |
| 2026-04-13 22:15 | 49.87312 | 9.32844 | 10405 ft | 298 kts | 311° |
| 2026-04-13 22:15 | 49.88771 | 9.30602 | 9629 ft | 293 kts | 314° |
| 2026-04-13 22:15 | 49.90228 | 9.28449 | 8822 ft | 286 kts | 314° |
| 2026-04-13 22:15 | 49.91626 | 9.26297 | 8036 ft | 280 kts | 313° |
| 2026-04-13 22:16 | 49.92979 | 9.24160 | 7269 ft | 275 kts | 313° |
| 2026-04-13 22:16 | 49.94316 | 9.22066 | 6520 ft | 271 kts | 314° |
| 2026-04-13 22:16 | 49.95636 | 9.20018 | 5761 ft | 263 kts | 314° |
| 2026-04-13 22:16 | 49.96889 | 9.18066 | 5059 ft | 246 kts | 314° |
| 2026-04-13 22:17 | 49.98057 | 9.16245 | 4668 ft | 231 kts | 314° |
| 2026-04-13 22:17 | 49.99186 | 9.14482 | 4467 ft | 232 kts | 314° |
| 2026-04-13 22:17 | 50.00324 | 9.12696 | 4358 ft | 230 kts | 314° |
| 2026-04-13 22:17 | 50.01437 | 9.10947 | 4225 ft | 229 kts | 314° |
| 2026-04-13 22:18 | 50.02553 | 9.09195 | 4092 ft | 227 kts | 314° |
| 2026-04-13 22:18 | 50.03660 | 9.07456 | 3957 ft | 226 kts | 314° |
| 2026-04-13 22:18 | 50.04771 | 9.05709 | 3836 ft | 226 kts | 314° |
| 2026-04-13 22:18 | 50.05874 | 9.03972 | 3684 ft | 225 kts | 314° |
| 2026-04-13 22:19 | 50.06975 | 9.02239 | 3570 ft | 224 kts | 314° |
| 2026-04-13 22:19 | 50.08065 | 9.00519 | 3463 ft | 223 kts | 314° |
| 2026-04-13 22:19 | 50.09156 | 8.98799 | 3313 ft | 222 kts | 315° |
| 2026-04-13 22:19 | 50.10241 | 8.97087 | 3195 ft | 222 kts | 315° |
| 2026-04-13 22:20 | 50.11312 | 8.95351 | 3035 ft | 220 kts | 311° |
| 2026-04-13 22:20 | 50.11850 | 8.93162 | 2965 ft | 222 kts | 275° |
| 2026-04-13 22:20 | 50.11655 | 8.90799 | 2991 ft | 226 kts | 257° |
| 2026-04-13 22:20 | 50.11125 | 8.88494 | 3006 ft | 226 kts | 250° |
| 2026-04-13 22:21 | 50.10561 | 8.86201 | 3012 ft | 226 kts | 251° |
| 2026-04-13 22:21 | 50.10034 | 8.84007 | 3039 ft | 209 kts | 251° |
| 2026-04-13 22:21 | 50.09531 | 8.81907 | 3009 ft | 199 kts | 251° |
| 2026-04-13 22:21 | 50.09069 | 8.79936 | 3013 ft | 189 kts | 252° |
| 2026-04-13 22:22 | 50.08618 | 8.78039 | 3008 ft | 185 kts | 251° |
| 2026-04-13 22:22 | 50.08170 | 8.76161 | 2810 ft | 183 kts | 251° |
| 2026-04-13 22:22 | 50.07731 | 8.74327 | 2553 ft | 177 kts | 252° |
| 2026-04-13 22:22 | 50.07316 | 8.72566 | 2301 ft | 167 kts | 252° |
| 2026-04-13 22:23 | 50.06933 | 8.70967 | 2080 ft | 149 kts | 252° |
| 2026-04-13 22:23 | 50.06592 | 8.69519 | 1894 ft | 142 kts | 253° |
| 2026-04-13 22:23 | 50.06249 | 8.68072 | 1702 ft | 142 kts | 253° |
| 2026-04-13 22:23 | 50.05907 | 8.66636 | 1497 ft | 141 kts | 252° |
| 2026-04-13 22:24 | 50.05571 | 8.65197 | 1330 ft | 143 kts | 253° |
| 2026-04-13 22:24 | 50.05237 | 8.63757 | 1172 ft | 140 kts | 250° |
| 2026-04-13 22:24 | 50.04893 | 8.62326 | 1000 ft | 141 kts | 250° |
| 2026-04-13 22:24 | 50.04558 | 8.60935 | 760 ft | 141 kts | 251° |
| 2026-04-13 22:25 | 50.04205 | 8.59482 | 514 ft | 144 kts | 251° |
| 2026-04-13 22:25 | 50.03865 | 8.58067 | 376 ft | 128 kts | 250° |
| 2026-04-13 22:25 | 50.03644 | 8.57142 | 363 ft | 50 kts | 250° |
| 2026-04-13 22:25 | 50.03532 | 8.56672 | 362 ft | 43 kts | 249° |
| 2026-04-13 22:26 | 50.03432 | 8.56259 | 364 ft | 39 kts | 250° |
| 2026-04-13 22:26 | 50.03338 | 8.55845 | 353 ft | 41 kts | 252° |
| 2026-04-13 22:26 | 50.03322 | 8.55443 | 356 ft | 29 kts | 278° |
| 2026-04-13 22:26 | 50.03349 | 8.55183 | 351 ft | 24 kts | 281° |
| 2026-04-13 22:27 | 50.03403 | 8.54945 | 355 ft | 23 kts | 299° |
| 2026-04-13 22:27 | 50.03518 | 8.54809 | 355 ft | 21 kts | 339° |
| 2026-04-13 22:27 | 50.03648 | 8.54734 | 357 ft | 20 kts | 340° |
| 2026-04-13 22:27 | 50.03741 | 8.54725 | 361 ft | 10 kts | 38° |
| 2026-04-13 22:28 | 50.03780 | 8.54817 | 361 ft | 12 kts | 66° |
| 2026-04-13 22:28 | 50.03815 | 8.54978 | 361 ft | 19 kts | 71° |
| 2026-04-13 22:28 | 50.03861 | 8.55172 | 359 ft | 20 kts | 68° |
| 2026-04-13 22:28 | 50.03912 | 8.55379 | 360 ft | 23 kts | 71° |
| 2026-04-13 22:29 | 50.03980 | 8.55670 | 360 ft | 29 kts | 69° |
| 2026-04-13 22:29 | 50.04052 | 8.55967 | 360 ft | 29 kts | 69° |
| 2026-04-13 22:29 | 50.04125 | 8.56264 | 364 ft | 30 kts | 70° |
| 2026-04-13 22:29 | 50.04195 | 8.56565 | 364 ft | 29 kts | 70° |
| 2026-04-13 22:30 | 50.04264 | 8.56859 | 367 ft | 28 kts | 69° |
| 2026-04-13 22:30 | 50.04335 | 8.57150 | 367 ft | 29 kts | 69° |
| 2026-04-13 22:30 | 50.04407 | 8.57443 | 371 ft | 29 kts | 70° |
| 2026-04-13 22:30 | 50.04471 | 8.57736 | 375 ft | 28 kts | 70° |
| 2026-04-13 22:31 | 50.04541 | 8.58012 | 370 ft | 27 kts | 68° |
| 2026-04-13 22:31 | 50.04602 | 8.58264 | 376 ft | 22 kts | 70° |
| 2026-04-13 22:31 | 50.04652 | 8.58472 | 377 ft | 15 kts | 70° |
| 2026-04-13 22:31 | 50.04685 | 8.58617 | 377 ft | 15 kts | 71° |
| 2026-04-13 22:32 | 50.04739 | 8.58747 | 373 ft | 13 kts | 20° |
| 2026-04-13 22:32 | 50.04819 | 8.58725 | 373 ft | 13 kts | 339° |
| 2026-04-13 22:32 | 50.04896 | 8.58680 | 371 ft | 4 kts | 340° |
| 2026-04-13 22:32 | 50.04930 | 8.58683 | 367 ft | 5 kts | 31° |
| 2026-04-13 22:33 | 50.04951 | 8.58705 | 372 ft | 4 kts | 43° |
| 2026-04-13 22:33 | 50.04968 | 8.58749 | 371 ft | 6 kts | 66° |
| 2026-04-13 22:33 | 50.04986 | 8.58820 | 369 ft | 8 kts | 69° |
| 2026-04-13 22:34 | 50.05035 | 8.58883 | 371 ft | 4 kts | 339° |
| 2026-04-13 22:34 | 50.05069 | 8.58863 | 367 ft | 0 kts | 340° |
| 2026-04-13 22:34 | 50.05077 | 8.58859 | 369 ft | 3 kts | 340° |
| 2026-04-13 22:35 | 50.05084 | 8.58855 | 369 ft | 0 kts | 340° |
| 2026-04-13 22:35 | 50.05087 | 8.58853 | 369 ft | 0 kts | 340° |